M I D A S
Marine Information and Data Acquisition System
Tripno 1187 of the Zeeleeuw from 2006-11-22 07:29:31 to 2006-11-22 16:52:26
Back to CruiseResearch ActivitiesStationsMapUnderway DataData graphs

EquipmentUnitsComment
TimeDGPSUTC
LatitudeDGPSDM.mWGS84
LongitudeDGPSDM.mWGS84
TemperatureSBE03/SBE38deg celciusITS90
ConductivitySBE21S/mITS90
SalinitySBE21 Practical Salinity Units
ChlorophylAChelsea fluorimeterg/lCalibrated in Aceton
Missing or incorrect values are displayed as -999
Sea surface data collected by the RV Zeeleeuw from 2006-11-22 07:19:05 to 2006-11-22 17:03:09
                                                                                    Next 1000 lines
Time Latitude Longitude Temperature Conductivity Salinity ChlorophylA
2006-11-22 07:19:16 51°13.597 2°56.092 -999 -999 -999 -2.871232
2006-11-22 07:19:20 51°13.598 2°56.09 -999 -999 -999 -2.871232
2006-11-22 07:19:25 51°13.599 2°56.086 -999 -999 -999 -2.871232
2006-11-22 07:19:30 51°13.6 2°56.082 -999 -999 -999 -2.871232
2006-11-22 07:19:36 51°13.601 2°56.075 -999 -999 -999 -2.871232
2006-11-22 07:19:41 51°13.603 2°56.07 -999 -999 -999 -2.871232
2006-11-22 07:19:46 51°13.604 2°56.064 -999 -999 -999 -2.871232
2006-11-22 07:19:51 51°13.605 2°56.057 -999 -999 -999 -2.871232
2006-11-22 07:19:56 51°13.607 2°56.05 -999 3.670897 25.659337 -2.871232
2006-11-22 07:20:01 51°13.608 2°56.043 -999 3.861159 27.692354 -2.871232
2006-11-22 07:20:06 51°13.61 2°56.035 -999 3.745944 28.050197 -2.871232
2006-11-22 07:20:11 51°13.611 2°56.027 -999 3.078847 23.418235 -2.871232
2006-11-22 07:20:16 51°13.613 2°56.019 -999 3.078847 23.418235 -2.871232
2006-11-22 07:20:21 51°13.615 2°56.01 -999 2.915519 22.713833 -2.871232
2006-11-22 07:20:26 51°13.617 2°56.001 -999 2.812215 22.313836 -2.871232
2006-11-22 07:20:31 51°13.619 2°55.992 -999 2.765587 22.224726 -2.871232
2006-11-22 07:20:36 51°13.621 2°55.983 -999 2.721236 22.020541 -2.871232
2006-11-22 07:20:41 51°13.624 2°55.973 -999 2.69653 21.924436 -2.871232
2006-11-22 07:20:46 51°13.626 2°55.964 -999 2.69653 21.924436 -2.871232
2006-11-22 07:20:51 51°13.629 2°55.955 -999 2.69374 21.981511 -2.871232
2006-11-22 07:20:56 51°13.632 2°55.945 -999 2.659628 21.739015 -2.871232
2006-11-22 07:21:01 51°13.635 2°55.935 -999 2.670793 21.895053 -2.871232
2006-11-22 07:21:06 51°13.638 2°55.926 -999 2.670276 21.933348 -2.871232
2006-11-22 07:21:12 51°13.643 2°55.914 -999 2.651463 21.787968 -2.871232
2006-11-22 07:21:16 51°13.646 2°55.906 -999 2.651463 21.787968 -2.871232
2006-11-22 07:21:21 51°13.65 2°55.896 -999 2.643091 21.729145 -2.871232
2006-11-22 07:21:26 51°13.654 2°55.886 -999 2.653841 21.850732 -2.871232
2006-11-22 07:21:31 51°13.658 2°55.876 -999 2.647123 21.805719 -2.871232
2006-11-22 07:21:36 51°13.662 2°55.865 -999 2.644332 21.805477 -2.871232
2006-11-22 07:21:41 51°13.666 2°55.856 -999 2.635546 21.743272 -2.871232
2006-11-22 07:21:46 51°13.671 2°55.845 -999 2.635546 21.743272 -2.871232
2006-11-22 07:21:51 51°13.675 2°55.836 -999 2.619732 21.619456 -2.871232
2006-11-22 07:21:56 51°13.68 2°55.826 -999 2.611877 21.563911 -2.871232
2006-11-22 07:22:01 51°13.684 2°55.816 -999 2.612497 21.578716 -2.871232
2006-11-22 07:22:06 51°13.688 2°55.806 -999 2.624074 21.694079 -2.871232
2006-11-22 07:22:11 51°13.693 2°55.797 -999 2.626761 21.726106 -2.871232
2006-11-22 07:22:16 51°13.696 2°55.788 -999 2.626761 21.726106 -2.871232
2006-11-22 07:22:19 51°13.699 2°55.783 -999 2.657254 22.008303 -2.871232
2006-11-22 07:22:26 51°13.704 2°55.771 -999 2.665731 22.090996 -2.871232
2006-11-22 07:22:30 51°13.707 2°55.763 -999 2.684338 22.266102 -2.871232
2006-11-22 07:22:36 51°13.711 2°55.753 -999 2.686199 22.28754 -2.871232
2006-11-22 07:22:41 51°13.714 2°55.745 -999 2.695296 22.37782 -2.871232
2006-11-22 07:22:46 51°13.717 2°55.737 -999 2.695296 22.37782 -2.871232
2006-11-22 07:22:50 51°13.719 2°55.731 -999 2.700569 22.432138 -2.871232
2006-11-22 07:22:55 51°13.722 2°55.724 -999 2.691885 22.358475 -2.871232
2006-11-22 07:23:01 51°13.724 2°55.717 -999 2.677826 22.240775 -2.871232
2006-11-22 07:23:06 51°13.726 2°55.713 -999 2.667902 22.157449 -2.871232
2006-11-22 07:23:10 51°13.726 2°55.712 -999 2.655498 22.050923 -2.871232
2006-11-22 07:23:16 51°13.727 2°55.712 -999 2.655498 22.050923 -2.871232
2006-11-22 07:23:20 51°13.728 2°55.713 -999 2.658186 22.078222 -2.871232
2006-11-22 07:23:26 51°13.729 2°55.716 -999 2.65126 22.018902 -2.871232
2006-11-22 07:23:30 51°13.73 2°55.718 -999 2.661494 22.115087 -2.871232
2006-11-22 07:23:35 51°13.731 2°55.722 -999 2.670384 22.19795 -2.871232
2006-11-22 07:23:40 51°13.732 2°55.725 -999 2.67793 22.268579 -2.871232
2006-11-22 07:23:45 51°13.734 2°55.728 -999 2.67793 22.268579 -2.871232
2006-11-22 07:23:50 51°13.736 2°55.731 -999 2.672968 22.225474 -2.871232
2006-11-22 07:23:56 51°13.738 2°55.733 -999 2.65953 22.110504 -2.871232
2006-11-22 07:24:00 51°13.739 2°55.734 -999 2.645885 21.990326 -2.871232
2006-11-22 07:24:05 51°13.74 2°55.735 -999 2.632551 21.874117 -2.871232
2006-11-22 07:24:10 51°13.74 2°55.735 -999 2.620871 21.771376 -2.871232
2006-11-22 07:24:15 51°13.74 2°55.734 -999 2.620871 21.771376 -2.871232
2006-11-22 07:24:20 51°13.739 2°55.732 -999 2.610225 21.678088 -2.871232
2006-11-22 07:24:25 51°13.738 2°55.73 -999 2.608675 21.666677 -2.871232
2006-11-22 07:24:30 51°13.737 2°55.728 -999 2.601026 21.599646 -2.871232
2006-11-22 07:24:36 51°13.734 2°55.725 -999 2.606091 21.648563 -2.871232
2006-11-22 07:24:41 51°13.732 2°55.722 -999 2.612189 21.704749 -2.871232
2006-11-22 07:24:46 51°13.729 2°55.719 -999 2.612189 21.704749 -2.871232
2006-11-22 07:24:51 51°13.727 2°55.716 -999 2.612912 21.711899 -2.871232
2006-11-22 07:24:56 51°13.726 2°55.714 -999 2.61808 21.756327 -2.871232
2006-11-22 07:25:01 51°13.724 2°55.712 -999 2.626349 21.831263 -2.871232
2006-11-22 07:25:06 51°13.723 2°55.71 -999 2.649607 22.042067 -2.871232
2006-11-22 07:25:10 51°13.723 2°55.709 -999 2.694884 22.447875 -2.871232
2006-11-22 07:25:15 51°13.723 2°55.708 -999 2.694884 22.447875 -2.871232
2006-11-22 07:25:20 51°13.725 2°55.708 -999 2.758259 23.018614 -2.871232
2006-11-22 07:25:25 51°13.727 2°55.708 -999 2.809234 23.47531 -2.871232
2006-11-22 07:25:30 51°13.73 2°55.708 -999 2.856389 23.899267 -2.871232
2006-11-22 07:25:35 51°13.733 2°55.707 -999 2.882243 24.129736 -2.871232
2006-11-22 07:25:40 51°13.737 2°55.706 -999 2.90634 24.347799 -2.871232
2006-11-22 07:25:46 51°13.742 2°55.703 -999 2.90634 24.347799 -2.871232
2006-11-22 07:25:50 51°13.746 2°55.7 -999 2.908202 24.362533 -2.871232
2006-11-22 07:25:55 51°13.751 2°55.696 -999 2.887 24.167533 -2.871232
2006-11-22 07:26:00 51°13.758 2°55.691 -999 2.889275 24.192167 -2.871232
2006-11-22 07:26:06 51°13.766 2°55.683 -999 2.898687 24.281441 -2.871232
2006-11-22 07:26:10 51°13.773 2°55.678 -999 2.876968 24.085949 -2.871232
2006-11-22 07:26:16 51°13.783 2°55.67 -999 2.876968 24.085949 -2.871232
2006-11-22 07:26:20 51°13.79 2°55.665 -999 2.844806 23.794973 -2.871232
2006-11-22 07:26:25 51°13.8 2°55.657 -999 2.796102 23.357504 -2.871232
2006-11-22 07:26:30 51°13.809 2°55.649 -999 2.759293 23.028105 -2.871232
2006-11-22 07:26:36 51°13.822 2°55.64 -999 2.742647 22.879381 -2.871232
2006-11-22 07:26:40 51°13.83 2°55.634 -999 2.750091 22.950582 -2.871232
2006-11-22 07:26:45 51°13.841 2°55.626 -999 2.750091 22.950582 -2.871232
2006-11-22 07:26:50 51°13.852 2°55.618 -999 2.753296 22.981162 -2.871232
2006-11-22 07:26:55 51°13.863 2°55.609 -999 2.735513 22.820837 -2.871232
2006-11-22 07:27:00 51°13.875 2°55.601 -999 2.697675 22.481363 -2.871232
2006-11-22 07:27:05 51°13.887 2°55.592 -999 2.664182 22.186515 -2.871232
2006-11-22 07:27:10 51°13.899 2°55.584 -999 2.620045 21.790726 -2.871232
2006-11-22 07:27:15 51°13.911 2°55.576 -999 2.620045 21.790726 -2.871232
2006-11-22 07:27:20 51°13.923 2°55.567 -999 2.565473 21.303088 -2.871232
2006-11-22 07:27:25 51°13.935 2°55.559 -999 2.527339 20.965869 -2.871232
2006-11-22 07:27:30 51°13.947 2°55.55 -999 2.479494 20.541261 -2.871232
2006-11-22 07:27:35 51°13.959 2°55.542 -999 2.429382 20.098218 -2.871232
2006-11-22 07:27:40 51°13.97 2°55.533 -999 2.396527 19.807055 -2.871232
2006-11-22 07:27:46 51°13.983 2°55.523 -999 2.396527 19.807055 -2.871232
2006-11-22 07:27:50 51°13.992 2°55.517 -999 2.402313 19.864977 -2.871232
2006-11-22 07:27:54 51°14.001 2°55.51 -999 2.417294 20.000766 -2.871232
2006-11-22 07:28:00 51°14.014 2°55.502 -999 2.427212 20.091235 -2.871232
2006-11-22 07:28:05 51°14.025 2°55.494 -999 2.460896 20.397601 -2.871232
2006-11-22 07:28:10 51°14.035 2°55.487 -999 2.480528 20.57507 -2.871232
2006-11-22 07:28:15 51°14.046 2°55.48 -999 2.480528 20.57507 -2.871232
2006-11-22 07:28:20 51°14.056 2°55.473 -999 2.497371 20.724682 -2.871232
2006-11-22 07:28:26 51°14.068 2°55.464 -999 2.516178 20.886452 -2.871232
2006-11-22 07:28:30 51°14.077 2°55.459 -999 2.512355 20.849001 -2.871232
2006-11-22 07:28:36 51°14.089 2°55.45 -999 2.508738 20.823442 -2.871232
2006-11-22 07:28:40 51°14.097 2°55.444 -999 2.499541 20.742338 -2.871232
2006-11-22 07:28:45 51°14.107 2°55.436 -999 2.499541 20.742338 -2.871232
2006-11-22 07:28:51 51°14.12 2°55.426 -999 2.468955 20.468792 -2.871232
2006-11-22 07:28:54 51°14.126 2°55.421 -999 2.459656 20.393037 -2.871232
2006-11-22 07:29:00 51°14.139 2°55.412 -999 2.438784 20.214652 -2.871232
2006-11-22 07:29:06 51°14.151 2°55.401 -999 2.424423 20.090819 -2.871232
2006-11-22 07:29:11 51°14.161 2°55.392 -999 2.414401 20.002351 -2.871232
2006-11-22 07:29:16 51°14.172 2°55.382 -999 2.414401 20.002351 -2.871232
2006-11-22 07:29:21 51°14.182 2°55.372 -999 2.439508 20.228903 -2.871232
2006-11-22 07:29:26 51°14.192 2°55.362 -999 2.447464 20.299694 -2.871232
2006-11-22 07:29:30 51°14.2 2°55.353 -999 2.44984 20.320275 -2.871232
2006-11-22 07:29:36 51°14.211 2°55.339 -999 2.45542 20.368956 -2.871232
2006-11-22 07:29:41 51°14.221 2°55.328 -999 2.454696 20.367018 -2.871232
2006-11-22 07:29:46 51°14.23 2°55.315 -999 2.454696 20.367018 -2.871232
2006-11-22 07:29:50 51°14.237 2°55.305 -999 2.442091 20.256487 -2.871232
2006-11-22 07:29:56 51°14.247 2°55.289 -999 2.434135 20.186717 -2.871232
2006-11-22 07:30:01 51°14.255 2°55.275 -999 2.40159 19.896152 -2.871232
2006-11-22 07:30:05 51°14.262 2°55.264 -999 2.364089 19.565961 -2.871232
2006-11-22 07:30:10 51°14.27 2°55.249 -999 2.327521 19.248435 -2.871232
2006-11-22 07:30:15 51°14.278 2°55.234 -999 2.327521 19.248435 -2.871232
2006-11-22 07:30:20 51°14.286 2°55.22 -999 2.273809 18.777545 -2.871232
2006-11-22 07:30:26 51°14.297 2°55.201 -999 2.233323 18.423308 -2.871232
2006-11-22 07:30:30 51°14.304 2°55.189 -999 2.204922 18.17464 -2.871232
2006-11-22 07:30:36 51°14.314 2°55.171 -999 2.171567 17.881099 -2.871232
2006-11-22 07:30:39 51°14.319 2°55.162 -999 2.130779 17.521536 -2.871232
2006-11-22 07:30:46 51°14.332 2°55.14 -999 2.130779 17.521536 -2.871232
2006-11-22 07:30:50 51°14.339 2°55.128 -999 2.101043 17.259428 -2.871232
2006-11-22 07:30:56 51°14.35 2°55.109 -999 2.0965 17.217361 -2.871232
2006-11-22 07:31:00 51°14.358 2°55.096 -999 2.129643 17.500654 -2.871232
2006-11-22 07:31:06 51°14.369 2°55.079 -999 2.179312 17.941242 -2.871232
2006-11-22 07:31:10 51°14.377 2°55.067 -999 2.213804 18.248213 -2.871232
2006-11-22 07:31:16 51°14.389 2°55.05 -999 2.213804 18.248213 -2.871232
2006-11-22 07:31:19 51°14.395 2°55.042 -999 2.259349 18.650718 -2.871232
2006-11-22 07:31:25 51°14.408 2°55.026 -999 2.317914 19.164877 -2.871232
2006-11-22 07:31:30 51°14.42 2°55.012 -999 2.378449 19.69618 -2.871232
2006-11-22 07:31:36 51°14.434 2°54.999 -999 2.430622 20.15836 -2.871232
2006-11-22 07:31:40 51°14.444 2°54.99 -999 2.473089 20.530248 -2.871232
2006-11-22 07:31:45 51°14.456 2°54.98 -999 2.473089 20.530248 -2.871232
2006-11-22 07:31:50 51°14.469 2°54.971 -999 2.518969 20.936731 -2.871232
2006-11-22 07:31:55 51°14.483 2°54.962 -999 2.572708 21.419848 -2.871232
2006-11-22 07:32:01 51°14.499 2°54.954 -999 2.636067 21.993722 -2.871232
2006-11-22 07:32:05 51°14.51 2°54.949 -999 2.69809 22.556215 -2.871232
2006-11-22 07:32:10 51°14.525 2°54.946 -999 2.783695 23.334537 -2.871232
2006-11-22 07:32:15 51°14.54 2°54.943 -999 2.783695 23.334537 -2.871232
2006-11-22 07:32:20 51°14.554 2°54.943 -999 2.863422 24.058533 -2.871232
2006-11-22 07:32:26 51°14.573 2°54.942 -999 2.927648 24.636923 -2.871232
2006-11-22 07:32:30 51°14.585 2°54.943 -999 2.989503 25.192348 -2.871232
2006-11-22 07:32:35 51°14.6 2°54.943 -999 3.042366 25.667412 -2.871232
2006-11-22 07:32:40 51°14.615 2°54.944 -999 3.082612 26.018833 -2.871232
2006-11-22 07:32:46 51°14.634 2°54.944 -999 3.082612 26.018833 -2.871232
2006-11-22 07:32:50 51°14.646 2°54.943 -999 3.133003 26.467602 -2.871232
2006-11-22 07:32:55 51°14.662 2°54.944 -999 3.176155 26.861912 -2.871232
2006-11-22 07:33:00 51°14.676 2°54.944 -999 3.215274 27.215567 -2.871232
2006-11-22 07:33:06 51°14.696 2°54.947 -999 3.228832 27.330806 -2.871232
2006-11-22 07:33:10 51°14.708 2°54.95 -999 3.255433 27.579962 -2.871232
2006-11-22 07:33:15 51°14.725 2°54.951 -999 3.255433 27.579962 -2.871232
2006-11-22 07:33:20 51°14.74 2°54.953 -999 3.268475 27.708505 -2.871232
2006-11-22 07:33:25 51°14.755 2°54.957 -999 3.265887 27.687022 -2.871232
2006-11-22 07:33:30 51°14.772 2°54.96 -999 3.282863 27.844905 -2.871232
2006-11-22 07:33:36 51°14.791 2°54.964 -999 3.309673 28.088216 -2.871232
2006-11-22 07:33:40 51°14.804 2°54.964 -999 3.356672 28.515852 -2.871232
2006-11-22 07:33:46 51°14.824 2°54.966 -999 3.356672 28.515852 -2.871232
2006-11-22 07:33:50 51°14.837 2°54.965 -999 3.404194 28.940156 -2.871232
2006-11-22 07:33:55 51°14.855 2°54.964 -999 3.475228 29.581391 -2.871232
2006-11-22 07:34:01 51°14.874 2°54.96 -999 3.517895 29.960486 -2.871232
2006-11-22 07:34:05 51°14.887 2°54.958 -999 3.572582 30.456499 -2.871232
2006-11-22 07:34:10 51°14.905 2°54.958 -999 3.615776 30.845636 -2.871232
2006-11-22 07:34:16 51°14.926 2°54.954 -999 3.615776 30.845636 -2.871232
2006-11-22 07:34:21 51°14.942 2°54.951 -999 3.641674 31.071733 -2.871232
2006-11-22 07:34:25 51°14.956 2°54.947 -999 3.658353 31.211161 -2.871232
2006-11-22 07:34:30 51°14.972 2°54.943 -999 3.673271 31.338543 -2.871232
2006-11-22 07:34:35 51°14.99 2°54.939 -999 3.684046 31.429741 -2.871232
2006-11-22 07:34:41 51°15.011 2°54.935 -999 3.703731 31.60705 -2.871232
2006-11-22 07:34:45 51°15.024 2°54.93 -999 3.703731 31.60705 -2.871232
2006-11-22 07:34:50 51°15.04 2°54.926 -999 3.712849 31.682497 -2.871232
2006-11-22 07:34:55 51°15.058 2°54.918 -999 3.723521 31.771883 -2.871232
2006-11-22 07:35:00 51°15.074 2°54.911 -999 3.740721 31.925619 -2.871232
2006-11-22 07:35:06 51°15.095 2°54.902 -999 3.747249 31.980417 -2.871232
2006-11-22 07:35:10 51°15.108 2°54.895 -999 3.757612 32.072423 -2.871232
2006-11-22 07:35:14 51°15.12 2°54.887 -999 3.757612 32.072423 -2.871232
2006-11-22 07:35:21 51°15.142 2°54.871 -999 3.759684 32.08489 -2.871232
2006-11-22 07:35:25 51°15.154 2°54.86 -999 3.757715 32.058982 -2.871232
2006-11-22 07:35:30 51°15.17 2°54.848 -999 3.758958 32.064379 -2.871232
2006-11-22 07:35:35 51°15.184 2°54.835 -999 3.763207 32.098298 -2.871232
2006-11-22 07:35:40 51°15.2 2°54.822 -999 3.746938 31.939136 -2.871232
2006-11-22 07:35:46 51°15.218 2°54.806 -999 3.746938 31.939136 -2.871232
2006-11-22 07:35:50 51°15.23 2°54.795 -999 3.770771 32.159673 -2.871232
2006-11-22 07:35:56 51°15.248 2°54.778 -999 3.758233 32.036686 -2.871232
2006-11-22 07:36:00 51°15.26 2°54.768 -999 3.771289 32.156563 -2.871232
2006-11-22 07:36:05 51°15.276 2°54.755 -999 3.780201 32.236325 -2.871232
2006-11-22 07:36:10 51°15.29 2°54.742 -999 3.779268 32.222647 -2.871232
2006-11-22 07:36:15 51°15.306 2°54.728 -999 3.779268 32.222647 -2.871232
2006-11-22 07:36:20 51°15.322 2°54.715 -999 3.772014 32.147398 -2.871232
2006-11-22 07:36:25 51°15.338 2°54.702 -999 3.785693 32.270746 -2.871232
2006-11-22 07:36:30 51°15.353 2°54.688 -999 3.773465 32.146724 -2.871232
2006-11-22 07:36:36 51°15.373 2°54.673 -999 3.786833 32.266271 -2.871232
2006-11-22 07:36:40 51°15.386 2°54.66 -999 3.781237 32.20517 -2.871232
2006-11-22 07:36:46 51°15.403 2°54.647 -999 3.781237 32.20517 -2.871232
2006-11-22 07:36:50 51°15.416 2°54.636 -999 3.783206 32.219019 -2.871232
2006-11-22 07:36:56 51°15.435 2°54.619 -999 3.784138 32.222239 -2.871232
2006-11-22 07:37:01 51°15.45 2°54.606 -999 3.776366 32.142177 -2.871232
2006-11-22 07:37:05 51°15.463 2°54.595 -999 3.772428 32.100878 -2.871232
2006-11-22 07:37:10 51°15.48 2°54.581 -999 3.784864 32.213062 -2.871232
2006-11-22 07:37:15 51°15.496 2°54.567 -999 3.784864 32.213062 -2.871232
2006-11-22 07:37:20 51°15.511 2°54.554 -999 3.791289 32.268315 -2.871232
2006-11-22 07:37:26 51°15.531 2°54.538 -999 3.792118 32.270546 -2.871232
2006-11-22 07:37:30 51°15.543 2°54.526 -999 3.770355 32.059692 -2.871232
2006-11-22 07:37:35 51°15.56 2°54.512 -999 3.797403 32.310968 -2.871232
2006-11-22 07:37:40 51°15.575 2°54.499 -999 3.798957 32.321672 -2.871232
2006-11-22 07:37:46 51°15.594 2°54.482 -999 3.798957 32.321672 -2.871232
2006-11-22 07:37:50 51°15.608 2°54.469 -999 3.798853 32.316669 -2.871232
2006-11-22 07:37:56 51°15.626 2°54.452 -999 3.80476 32.366984 -2.871232
2006-11-22 07:38:00 51°15.639 2°54.439 -999 3.807351 32.382663 -2.871232
2006-11-22 07:38:05 51°15.654 2°54.423 -999 3.804449 32.345532 -2.871232
2006-11-22 07:38:10 51°15.669 2°54.406 -999 3.796677 32.265553 -2.871232
2006-11-22 07:38:16 51°15.687 2°54.385 -999 3.796677 32.265553 -2.871232
2006-11-22 07:38:20 51°15.7 2°54.371 -999 3.781754 32.118029 -2.871232
2006-11-22 07:38:25 51°15.713 2°54.355 -999 3.809838 32.378035 -2.871232
2006-11-22 07:38:30 51°15.728 2°54.335 -999 3.782893 32.117632 -2.871232
2006-11-22 07:38:36 51°15.745 2°54.314 -999 3.792116 32.199209 -2.871232
2006-11-22 07:38:40 51°15.756 2°54.298 -999 3.807972 32.342704 -2.871232
2006-11-22 07:38:45 51°15.771 2°54.279 -999 3.807972 32.342704 -2.871232
2006-11-22 07:38:50 51°15.784 2°54.26 -999 3.781235 32.084431 -2.871232
2006-11-22 07:38:56 51°15.802 2°54.237 -999 3.780199 32.06748 -2.871232
2006-11-22 07:39:00 51°15.813 2°54.222 -999 3.819683 32.431731 -2.871232
2006-11-22 07:39:06 51°15.831 2°54.2 -999 3.821963 32.443627 -2.871232
2006-11-22 07:39:10 51°15.841 2°54.184 -999 3.827145 32.480529 -2.871232
2006-11-22 07:39:15 51°15.855 2°54.166 -999 3.827145 32.480529 -2.871232
2006-11-22 07:39:20 51°15.87 2°54.146 -999 3.832223 32.516435 -2.871232
2006-11-22 07:39:25 51°15.883 2°54.128 -999 3.832534 32.508091 -2.871232
2006-11-22 07:39:30 51°15.896 2°54.109 -999 3.832637 32.501016 -2.871232
2006-11-22 07:39:35 51°15.912 2°54.089 -999 3.834399 32.514434 -2.871232
2006-11-22 07:39:40 51°15.924 2°54.071 -999 3.833362 32.504647 -2.871232
2006-11-22 07:39:46 51°15.941 2°54.048 -999 3.833362 32.504647 -2.871232
2006-11-22 07:39:50 51°15.952 2°54.033 -999 3.83471 32.520593 -2.871232
2006-11-22 07:39:55 51°15.965 2°54.014 -999 3.833777 32.518228 -2.871232
2006-11-22 07:40:00 51°15.98 2°53.994 -999 3.833881 32.525655 -2.871232
2006-11-22 07:40:05 51°15.993 2°53.976 -999 3.828388 32.482617 -2.871232
2006-11-22 07:40:10 51°16.007 2°53.958 -999 3.831601 32.520233 -2.871232
2006-11-22 07:40:15 51°16.021 2°53.938 -999 3.831601 32.520233 -2.871232
2006-11-22 07:40:20 51°16.035 2°53.92 -999 3.827248 32.483925 -2.871232
2006-11-22 07:40:26 51°16.052 2°53.897 -999 3.826626 32.480465 -2.871232
2006-11-22 07:40:30 51°16.063 2°53.882 -999 3.821652 32.43586 -2.871232
2006-11-22 07:40:36 51°16.08 2°53.858 -999 3.827974 32.499649 -2.871232
2006-11-22 07:40:40 51°16.091 2°53.843 -999 3.826005 32.48345 -2.871232
2006-11-22 07:40:46 51°16.107 2°53.82 -999 3.826005 32.48345 -2.871232
2006-11-22 07:40:50 51°16.118 2°53.806 -999 3.820616 32.436525 -2.871232
2006-11-22 07:40:56 51°16.136 2°53.782 -999 3.823725 32.471561 -2.871232
2006-11-22 07:41:00 51°16.147 2°53.767 -999 3.823829 32.477377 -2.871232
2006-11-22 07:41:05 51°16.161 2°53.748 -999 3.824865 32.492019 -2.871232
2006-11-22 07:41:10 51°16.174 2°53.73 -999 3.82445 32.49213 -2.871232
2006-11-22 07:41:16 51°16.191 2°53.707 -999 3.82445 32.49213 -2.871232
2006-11-22 07:41:19 51°16.2 2°53.696 -999 3.824865 32.497666 -2.871232
2006-11-22 07:41:25 51°16.216 2°53.674 -999 3.825487 32.502743 -2.871232
2006-11-22 07:41:30 51°16.23 2°53.657 -999 3.81191 32.373517 -2.871232
2006-11-22 07:41:36 51°16.247 2°53.635 -999 3.823207 32.477138 -2.871232
2006-11-22 07:41:40 51°16.259 2°53.619 -999 3.823103 32.472933 -2.871232
2006-11-22 07:41:45 51°16.272 2°53.603 -999 3.823103 32.472933 -2.871232
2006-11-22 07:41:50 51°16.286 2°53.585 -999 3.825176 32.489314 -2.871232
2006-11-22 07:41:55 51°16.3 2°53.565 -999 3.826523 32.498025 -2.871232
2006-11-22 07:42:00 51°16.314 2°53.547 -999 3.825072 32.480272 -2.871232
2006-11-22 07:42:06 51°16.331 2°53.525 -999 3.823517 32.46235 -2.871232
2006-11-22 07:42:10 51°16.343 2°53.511 -999 3.827248 32.496015 -2.871232
2006-11-22 07:42:15 51°16.356 2°53.493 -999 3.827248 32.496015 -2.871232
2006-11-22 07:42:20 51°16.37 2°53.475 -999 3.823206 32.455384 -2.871232
2006-11-22 07:42:26 51°16.387 2°53.452 -999 3.823414 32.454927 -2.871232
2006-11-22 07:42:30 51°16.398 2°53.438 -999 3.825694 32.473259 -2.871232
2006-11-22 07:42:36 51°16.414 2°53.417 -999 3.828596 32.498273 -2.871232
2006-11-22 07:42:40 51°16.426 2°53.402 -999 3.828181 32.488713 -2.871232
2006-11-22 07:42:46 51°16.442 2°53.383 -999 3.828181 32.488713 -2.871232
2006-11-22 07:42:50 51°16.454 2°53.368 -999 3.829839 32.497939 -2.871232
2006-11-22 07:42:56 51°16.471 2°53.347 -999 3.829632 32.489536 -2.871232
2006-11-22 07:43:00 51°16.482 2°53.333 -999 3.828388 32.469738 -2.871232
2006-11-22 07:43:05 51°16.496 2°53.315 -999 3.834503 32.518635 -2.871232
2006-11-22 07:43:10 51°16.51 2°53.298 -999 3.832015 32.487095 -2.871232
2006-11-22 07:43:16 51°16.529 2°53.276 -999 3.832015 32.487095 -2.871232
2006-11-22 07:43:20 51°16.539 2°53.264 -999 3.831186 32.474441 -2.871232
2006-11-22 07:43:26 51°16.556 2°53.244 -999 3.83813 32.531139 -2.871232
2006-11-22 07:43:29 51°16.565 2°53.234 -999 3.841446 32.552778 -2.871232
2006-11-22 07:43:36 51°16.585 2°53.21 -999 3.841861 32.548635 -2.871232
2006-11-22 07:43:40 51°16.596 2°53.196 -999 3.844037 32.565145 -2.871232
2006-11-22 07:43:46 51°16.614 2°53.176 -999 3.844037 32.565145 -2.871232
2006-11-22 07:43:50 51°16.625 2°53.162 -999 3.844659 32.565373 -2.871232
2006-11-22 07:43:56 51°16.642 2°53.143 -999 3.846524 32.573306 -2.871232
2006-11-22 07:44:00 51°16.653 2°53.129 -999 3.844762 32.546225 -2.871232
2006-11-22 07:44:05 51°16.668 2°53.111 -999 3.848079 32.568642 -2.871232
2006-11-22 07:44:10 51°16.681 2°53.097 -999 3.851292 32.593295 -2.871232
2006-11-22 07:44:15 51°16.696 2°53.079 -999 3.851292 32.593295 -2.871232
2006-11-22 07:44:20 51°16.709 2°53.064 -999 3.857096 32.640759 -2.871232
2006-11-22 07:44:26 51°16.727 2°53.043 -999 3.858443 32.647815 -2.871232
2006-11-22 07:44:30 51°16.738 2°53.03 -999 3.860516 32.660902 -2.871232
2006-11-22 07:44:36 51°16.755 2°53.011 -999 3.861345 32.663071 -2.871232
2006-11-22 07:44:40 51°16.766 2°52.997 -999 3.862796 32.672712 -2.871232
2006-11-22 07:44:46 51°16.783 2°52.977 -999 3.862796 32.672712 -2.871232
2006-11-22 07:44:50 51°16.794 2°52.965 -999 3.861448 32.655179 -2.871232
2006-11-22 07:44:56 51°16.811 2°52.945 -999 3.865387 32.689867 -2.871232
2006-11-22 07:45:00 51°16.822 2°52.931 -999 3.862692 32.66206 -2.871232
2006-11-22 07:45:05 51°16.836 2°52.914 -999 3.854608 32.583505 -2.871232
2006-11-22 07:45:10 51°16.849 2°52.898 -999 3.866942 32.696446 -2.871232
2006-11-22 07:45:16 51°16.865 2°52.878 -999 3.866942 32.696446 -2.871232
2006-11-22 07:45:21 51°16.879 2°52.863 -999 3.867978 32.701369 -2.871232
2006-11-22 07:45:25 51°16.89 2°52.849 -999 3.869636 32.713762 -2.871232
2006-11-22 07:45:30 51°16.903 2°52.835 -999 3.870776 32.719658 -2.871232
2006-11-22 07:45:36 51°16.92 2°52.815 -999 3.867667 32.687151 -2.871232
2006-11-22 07:45:40 51°16.932 2°52.802 -999 3.86746 32.682781 -2.871232
2006-11-22 07:45:46 51°16.948 2°52.781 -999 3.86746 32.682781 -2.871232
2006-11-22 07:45:50 51°16.959 2°52.767 -999 3.874508 32.74511 -2.871232
2006-11-22 07:45:55 51°16.973 2°52.75 -999 3.857509 32.581087 -2.871232
2006-11-22 07:46:00 51°16.986 2°52.734 -999 3.870051 32.695084 -2.871232
2006-11-22 07:46:06 51°17.004 2°52.714 -999 3.867252 32.665525 -2.871232
2006-11-22 07:46:10 51°17.015 2°52.702 -999 3.867252 32.662304 -2.871232
2006-11-22 07:46:15 51°17.03 2°52.687 -999 3.867252 32.662304 -2.871232
2006-11-22 07:46:21 51°17.049 2°52.668 -999 3.872124 32.703311 -2.871232
2006-11-22 07:46:26 51°17.063 2°52.655 -999 3.873885 32.712637 -2.871232
2006-11-22 07:46:30 51°17.076 2°52.644 -999 3.878135 32.746976 -2.871232
2006-11-22 07:46:35 51°17.09 2°52.632 -999 3.875544 32.718568 -2.871232
2006-11-22 07:46:40 51°17.107 2°52.62 -999 3.877824 32.734375 -2.871232
2006-11-22 07:46:46 51°17.125 2°52.61 -999 3.877824 32.734375 -2.871232
2006-11-22 07:46:50 51°17.139 2°52.604 -999 3.870361 32.658566 -2.871232
2006-11-22 07:46:56 51°17.158 2°52.596 -999 3.874403 32.690133 -2.871232
2006-11-22 07:47:00 51°17.172 2°52.591 -999 3.870154 32.643759 -2.871232
2006-11-22 07:47:06 51°17.192 2°52.583 -999 3.86777 32.614938 -2.871232
2006-11-22 07:47:10 51°17.205 2°52.58 -999 3.876891 32.694206 -2.871232
2006-11-22 07:47:16 51°17.224 2°52.573 -999 3.876891 32.694206 -2.871232
2006-11-22 07:47:20 51°17.237 2°52.568 -999 3.873677 32.658394 -2.871232
2006-11-22 07:47:25 51°17.253 2°52.563 -999 3.869428 32.612866 -2.871232
2006-11-22 07:47:30 51°17.27 2°52.557 -999 3.869531 32.607426 -2.871232
2006-11-22 07:47:36 51°17.29 2°52.549 -999 3.881866 32.718423 -2.871232
2006-11-22 07:47:40 51°17.304 2°52.543 -999 3.883109 32.724474 -2.871232
2006-11-22 07:47:45 51°17.319 2°52.538 -999 3.883109 32.724474 -2.871232
2006-11-22 07:47:50 51°17.336 2°52.531 -999 3.883317 32.719987 -2.871232
2006-11-22 07:47:56 51°17.357 2°52.526 -999 3.88228 32.704631 -2.871232
2006-11-22 07:48:01 51°17.374 2°52.521 -999 3.889121 32.765633 -2.871232
2006-11-22 07:48:05 51°17.388 2°52.518 -999 3.880829 32.683785 -2.871232
2006-11-22 07:48:10 51°17.404 2°52.513 -999 3.88881 32.753864 -2.871232
2006-11-22 07:48:15 51°17.421 2°52.51 -999 3.88881 32.753864 -2.871232
2006-11-22 07:48:21 51°17.442 2°52.505 -999 3.889432 32.756483 -2.871232
2006-11-22 07:48:25 51°17.455 2°52.503 -999 3.876682 32.632061 -2.871232
2006-11-22 07:48:30 51°17.473 2°52.499 -999 3.884042 32.697075 -2.871232
2006-11-22 07:48:35 51°17.49 2°52.497 -999 3.877304 32.629883 -2.871232
2006-11-22 07:48:40 51°17.506 2°52.494 -999 3.885285 32.70232 -2.871232
2006-11-22 07:48:45 51°17.523 2°52.493 -999 3.885285 32.70232 -2.871232
2006-11-22 07:48:50 51°17.541 2°52.491 -999 3.886218 32.708661 -2.871232
2006-11-22 07:48:55 51°17.558 2°52.489 -999 3.892023 32.761496 -2.871232
2006-11-22 07:49:00 51°17.575 2°52.487 -999 3.891297 32.753083 -2.871232
2006-11-22 07:49:05 51°17.592 2°52.484 -999 3.876164 32.610389 -2.871232
2006-11-22 07:49:10 51°17.609 2°52.482 -999 3.883316 32.675831 -2.871232
2006-11-22 07:49:15 51°17.625 2°52.481 -999 3.883316 32.675831 -2.871232
2006-11-22 07:49:20 51°17.643 2°52.479 -999 3.873884 32.586618 -2.871232
2006-11-22 07:49:25 51°17.66 2°52.478 -999 3.887566 32.715678 -2.871232
2006-11-22 07:49:30 51°17.678 2°52.475 -999 3.887462 32.713904 -2.871232
2006-11-22 07:49:36 51°17.698 2°52.473 -999 3.889535 32.734147 -2.871232
2006-11-22 07:49:40 51°17.712 2°52.471 -999 3.892127 32.760057 -2.871232
2006-11-22 07:49:46 51°17.731 2°52.469 -999 3.892127 32.760057 -2.871232
2006-11-22 07:49:50 51°17.745 2°52.464 -999 3.88881 32.731358 -2.871232
2006-11-22 07:49:55 51°17.762 2°52.463 -999 3.882176 32.670753 -2.871232
2006-11-22 07:50:00 51°17.779 2°52.46 -999 3.892541 32.769574 -2.871232
2006-11-22 07:50:05 51°17.797 2°52.457 -999 3.894925 32.792746 -2.871232
2006-11-22 07:50:10 51°17.814 2°52.456 -999 3.878859 32.644461 135.202477
2006-11-22 07:50:15 51°17.83 2°52.454 -999 3.878859 32.644461 135.202477
2006-11-22 07:50:20 51°17.847 2°52.454 -999 3.874506 32.606045 -2.871232
2006-11-22 07:50:25 51°17.864 2°52.454 -999 3.887877 32.734658 -2.871232
2006-11-22 07:50:31 51°17.885 2°52.461 -999 3.8715 32.583463 -2.871232
2006-11-22 07:50:35 51°17.898 2°52.463 -999 3.895651 32.81405 -2.871232
2006-11-22 07:50:40 51°17.913 2°52.47 -999 3.899383 32.851501 -2.871232
2006-11-22 07:50:45 51°17.929 2°52.476 -999 3.899383 32.851501 -2.871232
2006-11-22 07:50:50 51°17.947 2°52.484 -999 3.899797 32.857815 -2.871232
2006-11-22 07:50:55 51°17.962 2°52.495 -999 3.901767 32.877923 -2.871232
2006-11-22 07:51:00 51°17.977 2°52.506 -999 3.895133 32.817244 -2.871232
2006-11-22 07:51:06 51°17.994 2°52.522 -999 3.903426 32.896731 -2.871232
2006-11-22 07:51:10 51°18.006 2°52.535 -999 3.902389 32.888611 -2.871232
2006-11-22 07:51:16 51°18.023 2°52.553 -999 3.902389 32.888611 -2.871232
2006-11-22 07:51:20 51°18.036 2°52.564 -999 3.902389 32.889419 -2.871232
2006-11-22 07:51:25 51°18.05 2°52.578 -999 3.898865 32.857125 -2.871232
2006-11-22 07:51:31 51°18.067 2°52.595 -999 3.900938 32.876596 -2.871232
2006-11-22 07:51:36 51°18.08 2°52.612 -999 3.901767 32.885193 -2.871232
2006-11-22 07:51:40 51°18.091 2°52.623 -999 3.896688 32.839909 -2.871232
2006-11-22 07:51:45 51°18.105 2°52.642 -999 3.896688 32.839909 -2.871232
2006-11-22 07:51:50 51°18.121 2°52.657 -999 3.901871 32.890206 -2.871232
2006-11-22 07:51:56 51°18.138 2°52.676 -999 3.903529 32.906596 -2.871232
2006-11-22 07:52:00 51°18.149 2°52.688 -999 3.905084 32.921205 -2.871232
2006-11-22 07:52:06 51°18.165 2°52.709 -999 3.903944 32.911301 -2.871232
2006-11-22 07:52:10 51°18.174 2°52.726 -999 3.904255 32.91584 -2.871232
2006-11-22 07:52:16 51°18.19 2°52.747 -999 3.904255 32.91584 -2.871232
2006-11-22 07:52:20 51°18.2 2°52.764 -999 3.905084 32.924441 -2.871232
2006-11-22 07:52:25 51°18.214 2°52.782 -999 3.905395 32.927363 -2.871232
2006-11-22 07:52:30 51°18.228 2°52.799 -999 3.905395 32.926554 -2.871232
2006-11-22 07:52:34 51°18.237 2°52.816 -999 3.905292 32.926389 -2.871232
2006-11-22 07:52:40 51°18.252 2°52.838 -999 3.905499 32.928337 -2.871232
2006-11-22 07:52:46 51°18.266 2°52.861 -999 3.905499 32.928337 -2.871232
2006-11-22 07:52:50 51°18.276 2°52.876 -999 3.902078 32.897812 -2.871232
2006-11-22 07:52:56 51°18.29 2°52.9 -999 3.904255 32.919076 -2.871232
2006-11-22 07:53:00 51°18.302 2°52.912 -999 3.903633 32.913231 -2.871232
2006-11-22 07:53:05 51°18.313 2°52.933 -999 3.90581 32.934497 -2.871232
2006-11-22 07:53:10 51°18.327 2°52.949 -999 3.903633 32.915658 -2.871232
2006-11-22 07:53:15 51°18.339 2°52.971 -999 3.903633 32.915658 -2.871232
2006-11-22 07:53:20 51°18.353 2°52.987 -999 3.905914 32.938709 -2.871232
2006-11-22 07:53:26 51°18.367 2°53.011 -999 3.906017 32.941303 -2.871232
2006-11-22 07:53:30 51°18.377 2°53.027 -999 3.905499 32.937241 -2.871232
2006-11-22 07:53:36 51°18.393 2°53.049 -999 3.905292 32.935292 -2.871232
2006-11-22 07:53:40 51°18.401 2°53.066 -999 3.903737 32.921487 -2.871232
2006-11-22 07:53:45 51°18.414 2°53.085 -999 3.903737 32.921487 -2.871232
2006-11-22 07:53:50 51°18.428 2°53.102 -999 3.904255 32.926358 -2.871232
2006-11-22 07:53:56 51°18.443 2°53.126 -999 3.90042 32.89112 -2.871232
2006-11-22 07:54:00 51°18.455 2°53.139 -999 3.903011 32.916285 -2.871232
2006-11-22 07:54:05 51°18.466 2°53.16 -999 3.905706 32.942428 -2.871232
2006-11-22 07:54:10 51°18.479 2°53.18 -999 3.902286 32.911892 -2.871232
2006-11-22 07:54:16 51°18.493 2°53.205 -999 3.902286 32.911892 -2.871232
2006-11-22 07:54:20 51°18.505 2°53.219 -999 3.905603 32.944694 -2.871232
2006-11-22 07:54:25 51°18.518 2°53.237 -999 3.905499 32.943719 -2.871232
2006-11-22 07:54:30 51°18.531 2°53.255 -999 3.905706 32.944858 -2.871232
2006-11-22 07:54:36 51°18.546 2°53.277 -999 3.904773 32.936088 -2.871232
2006-11-22 07:54:41 51°18.56 2°53.295 -999 3.900835 32.901487 -2.871232
2006-11-22 07:54:45 51°18.57 2°53.309 -999 3.900835 32.901487 -2.871232
2006-11-22 07:54:50 51°18.583 2°53.329 -999 3.904048 32.931695 -2.871232
2006-11-22 07:54:55 51°18.597 2°53.346 -999 3.904463 32.935593 -2.871232
2006-11-22 07:55:00 51°18.61 2°53.364 -999 3.903841 32.929746 -2.871232
2006-11-22 07:55:06 51°18.626 2°53.386 -999 3.905914 32.950048 -2.871232
2006-11-22 07:55:10 51°18.636 2°53.401 -999 3.904359 32.936239 -2.871232
2006-11-22 07:55:15 51°18.648 2°53.42 -999 3.904359 32.936239 -2.871232
2006-11-22 07:55:20 51°18.662 2°53.439 -999 3.898347 32.881337 -2.871232
2006-11-22 07:55:25 51°18.675 2°53.457 -999 3.904152 32.935099 -2.871232
2006-11-22 07:55:30 51°18.688 2°53.476 -999 3.903633 32.931036 -2.871232
2006-11-22 07:55:35 51°18.702 2°53.49 -999 3.902389 32.918532 -2.871232
2006-11-22 07:55:40 51°18.714 2°53.511 -999 3.89928 32.890915 -2.871232
2006-11-22 07:55:46 51°18.73 2°53.532 -999 3.89928 32.890915 -2.871232
2006-11-22 07:55:50 51°18.74 2°53.547 -999 3.896688 32.867364 -2.871232
2006-11-22 07:55:56 51°18.756 2°53.567 -999 3.899902 32.897571 -2.871232
2006-11-22 07:56:00 51°18.767 2°53.582 -999 3.900524 32.902609 -2.871232
2006-11-22 07:56:05 51°18.781 2°53.597 -999 3.904255 32.937694 -2.871232
2006-11-22 07:56:10 51°18.794 2°53.616 -999 3.905188 32.946466 -2.871232
2006-11-22 07:56:16 51°18.81 2°53.636 -999 3.905188 32.946466 -2.871232
2006-11-22 07:56:20 51°18.82 2°53.65 -999 3.905707 32.95296 -2.871232
2006-11-22 07:56:25 51°18.833 2°53.668 -999 3.900316 32.903087 -2.871232
2006-11-22 07:56:30 51°18.846 2°53.685 -999 3.903322 32.932971 -2.871232
2006-11-22 07:56:35 51°18.859 2°53.702 -999 3.903944 32.93963 -2.871232
2006-11-22 07:56:40 51°18.873 2°53.72 -999 3.904877 32.948403 -2.871232
2006-11-22 07:56:45 51°18.886 2°53.735 -999 3.904877 32.948403 -2.871232
2006-11-22 07:56:50 51°18.899 2°53.754 -999 3.903011 32.930857 -2.871232
2006-11-22 07:56:56 51°18.915 2°53.774 -999 3.904774 32.949049 -2.871232
2006-11-22 07:57:00 51°18.925 2°53.79 -999 3.903322 32.937021 -2.871232
2006-11-22 07:57:05 51°18.938 2°53.807 -999 3.90156 32.921259 -2.871232
2006-11-22 07:57:10 51°18.951 2°53.826 -999 3.903322 32.937832 -2.871232
2006-11-22 07:57:15 51°18.964 2°53.843 -999 3.903322 32.937832 -2.871232
2006-11-22 07:57:20 51°18.978 2°53.86 -999 3.903011 32.934097 -2.871232
2006-11-22 07:57:25 51°18.99 2°53.879 -999 3.901871 32.923374 -2.871232
2006-11-22 07:57:30 51°19.003 2°53.896 -999 3.90467 32.949695 -2.871232
2006-11-22 07:57:35 51°19.015 2°53.914 -999 3.902493 32.929223 -2.871232
2006-11-22 07:57:41 51°19.032 2°53.935 -999 3.903012 32.934907 -2.871232
2006-11-22 07:57:45 51°19.041 2°53.951 -999 3.903012 32.934907 -2.871232
2006-11-22 07:57:50 51°19.054 2°53.968 -999 3.903633 32.939946 -2.871232
2006-11-22 07:57:55 51°19.067 2°53.985 -999 3.901457 32.919475 -2.871232
2006-11-22 07:58:01 51°19.082 2°54.009 -999 3.901975 32.924349 -2.871232
2006-11-22 07:58:06 51°19.096 2°54.024 -999 3.900938 32.914601 -2.871232
2006-11-22 07:58:11 51°19.11 2°54.042 -999 3.903115 32.935882 -2.871232
2006-11-22 07:58:15 51°19.121 2°54.056 -999 3.903115 32.935882 -2.871232
2006-11-22 07:58:20 51°19.133 2°54.075 -999 3.902804 32.932957 -2.871232
2006-11-22 07:58:26 51°19.147 2°54.098 -999 3.899798 32.905497 -2.871232
2006-11-22 07:58:30 51°19.157 2°54.112 -999 3.900316 32.911181 -2.871232
2006-11-22 07:58:35 51°19.17 2°54.129 -999 3.897932 32.889571 -2.871232
2006-11-22 07:58:40 51°19.182 2°54.149 -999 3.90239 32.931488 -2.871232
2006-11-22 07:58:45 51°19.194 2°54.167 -999 3.90239 32.931488 -2.871232
2006-11-22 07:58:50 51°19.207 2°54.186 -999 3.903633 32.942377 -2.871232
2006-11-22 07:58:56 51°19.222 2°54.208 -999 3.895652 32.868128 -2.871232
2006-11-22 07:59:01 51°19.234 2°54.227 -999 3.900731 32.91589 -2.871232
2006-11-22 07:59:05 51°19.244 2°54.242 -999 3.902493 32.933273 -2.871232
2006-11-22 07:59:10 51°19.256 2°54.26 -999 3.897829 32.890214 -2.871232
2006-11-22 07:59:15 51°19.267 2°54.281 -999 3.897829 32.890214 -2.871232
2006-11-22 07:59:21 51°19.283 2°54.302 -999 3.895548 32.86877 -2.871232
2006-11-22 07:59:26 51°19.295 2°54.322 -999 3.898762 32.898178 -2.871232
2006-11-22 07:59:30 51°19.305 2°54.338 -999 3.899591 32.906786 -2.871232
2006-11-22 07:59:36 51°19.32 2°54.358 -999 3.898243 32.894113 -2.871232
2006-11-22 07:59:40 51°19.329 2°54.374 -999 3.896481 32.87916 -2.871232
2006-11-22 07:59:45 51°19.343 2°54.39 -999 3.896481 32.87916 -2.871232
2006-11-22 07:59:50 51°19.356 2°54.407 -999 3.901146 32.921409 -2.871232
2006-11-22 07:59:55 51°19.37 2°54.423 -999 3.903426 32.942858 -2.871232
2006-11-22 08:00:00 51°19.383 2°54.44 -999 3.896792 32.882084 -2.871232
2006-11-22 08:00:06 51°19.401 2°54.457 -999 3.895756 32.872337 -2.871232
2006-11-22 08:00:10 51°19.411 2°54.473 -999 3.900524 32.918799 -2.871232
2006-11-22 08:00:16 51°19.427 2°54.492 -999 3.900524 32.918799 -2.871232
2006-11-22 08:00:20 51°19.438 2°54.505 -999 3.901353 32.925789 -2.871232
2006-11-22 08:00:25 51°19.452 2°54.521 -999 3.900006 32.913924 -2.871232
2006-11-22 08:00:30 51°19.464 2°54.538 -999 3.899798 32.911974 -2.871232
2006-11-22 08:00:36 51°19.481 2°54.557 -999 3.901146 32.923839 -2.871232
2006-11-22 08:00:40 51°19.491 2°54.572 -999 3.898969 32.904175 -2.871232
2006-11-22 08:00:45 51°19.506 2°54.587 -999 3.898969 32.904175 -2.871232
2006-11-22 08:00:50 51°19.52 2°54.603 -999 3.89814 32.895566 -2.871232
2006-11-22 08:00:54 51°19.531 2°54.616 -999 3.897621 32.890692 -2.871232
2006-11-22 08:01:00 51°19.548 2°54.635 -999 3.899695 32.910999 -2.871232
2006-11-22 08:01:05 51°19.563 2°54.651 -999 3.89814 32.896375 -2.871232
2006-11-22 08:01:10 51°19.577 2°54.665 -999 3.899902 32.912949 -2.871232
2006-11-22 08:01:15 51°19.591 2°54.68 -999 3.899902 32.912949 -2.871232
2006-11-22 08:01:20 51°19.606 2°54.693 -999 3.896274 32.878828 -2.871232
2006-11-22 08:01:26 51°19.622 2°54.715 -999 3.891195 32.831068 -2.871232
2006-11-22 08:01:30 51°19.635 2°54.724 -999 3.894719 32.865015 -2.871232
2006-11-22 08:01:36 51°19.651 2°54.745 -999 3.897621 32.89231 -2.871232
2006-11-22 08:01:40 51°19.662 2°54.756 -999 3.893268 32.851369 -2.871232
2006-11-22 08:01:46 51°19.678 2°54.776 -999 3.893268 32.851369 -2.871232
2006-11-22 08:01:50 51°19.689 2°54.788 -999 3.897725 32.892476 -2.871232
2006-11-22 08:01:55 51°19.704 2°54.804 -999 3.899176 32.906934 -2.871232
2006-11-22 08:02:00 51°19.716 2°54.822 -999 3.897103 32.886627 -2.871232
2006-11-22 08:02:06 51°19.732 2°54.844 -999 3.89192 32.837891 -2.871232
2006-11-22 08:02:10 51°19.743 2°54.855 -999 3.892957 32.849253 -2.871232
2006-11-22 08:02:14 51°19.754 2°54.869 -999 3.892957 32.849253 -2.871232
2006-11-22 08:02:20 51°19.768 2°54.891 -999 3.894408 32.862091 -2.871232
2006-11-22 08:02:26 51°19.785 2°54.91 -999 3.897103 32.887436 -2.871232
2006-11-22 08:02:30 51°19.796 2°54.923 -999 3.896689 32.882728 -2.871232
2006-11-22 08:02:35 51°19.81 2°54.938 -999 3.898969 32.904984 -2.871232
2006-11-22 08:02:40 51°19.823 2°54.956 -999 3.897 32.885652 -2.871232
2006-11-22 08:02:46 51°19.84 2°54.975 -999 3.897 32.885652 -2.871232
2006-11-22 08:02:50 51°19.851 2°54.988 -999 3.897103 32.888245 -2.871232
2006-11-22 08:02:56 51°19.867 2°55.008 -999 3.895445 32.872648 -2.871232
2006-11-22 08:03:01 51°19.881 2°55.025 -999 3.891402 32.836249 -2.871232
2006-11-22 08:03:05 51°19.893 2°55.036 -999 3.893475 32.856552 -2.871232
2006-11-22 08:03:10 51°19.907 2°55.052 -999 3.894719 32.867441 -2.871232
2006-11-22 08:03:15 51°19.921 2°55.068 -999 3.894719 32.867441 -2.871232
2006-11-22 08:03:20 51°19.935 2°55.085 -999 3.895756 32.87719 -2.871232
2006-11-22 08:03:25 51°19.95 2°55.099 -999 3.890884 32.831376 -2.871232
2006-11-22 08:03:30 51°19.964 2°55.116 -999 3.896689 32.885964 -2.871232
2006-11-22 08:03:36 51°19.981 2°55.134 -999 3.895237 32.872315 -2.871232
2006-11-22 08:03:40 51°19.991 2°55.148 -999 3.894097 32.861592 -2.871232
2006-11-22 08:03:45 51°20.005 2°55.164 -999 3.894097 32.861592 -2.871232
2006-11-22 08:03:50 51°20.018 2°55.181 -999 3.888707 32.811716 -2.871232
2006-11-22 08:03:55 51°20.033 2°55.195 -999 3.891299 32.836082 -2.871232
2006-11-22 08:04:00 51°20.046 2°55.212 -999 3.894097 32.86321 -2.871232
2006-11-22 08:04:06 51°20.062 2°55.233 -999 3.894616 32.868084 -2.871232
2006-11-22 08:04:09 51°20.071 2°55.244 -999 3.895548 32.877667 -2.871232
2006-11-22 08:04:15 51°20.087 2°55.263 -999 3.895548 32.877667 -2.871232
2006-11-22 08:04:20 51°20.1 2°55.28 -999 3.896481 32.888869 -2.871232
2006-11-22 08:04:26 51°20.117 2°55.3 -999 3.896689 32.89082 -2.871232
2006-11-22 08:04:30 51°20.129 2°55.311 -999 3.896585 32.891463 -2.871232
2006-11-22 08:04:35 51°20.143 2°55.33 -999 3.891506 32.845305 -2.871232
2006-11-22 08:04:40 51°20.157 2°55.346 -999 3.895859 32.887066 -2.871232
2006-11-22 08:04:46 51°20.173 2°55.365 -999 3.895859 32.887066 -2.871232
2006-11-22 08:04:50 51°20.184 2°55.379 -999 3.897103 32.901197 -2.871232
2006-11-22 08:04:55 51°20.197 2°55.396 -999 3.896171 32.894039 -2.871232
2006-11-22 08:05:00 51°20.21 2°55.412 -999 3.88964 32.833413 -2.871232
2006-11-22 08:05:05 51°20.223 2°55.428 -999 3.893786 32.874037 -2.871232
2006-11-22 08:05:10 51°20.236 2°55.445 -999 3.897414 32.909793 -2.871232
2006-11-22 08:05:15 51°20.25 2°55.461 -999 3.897414 32.909793 -2.871232
2006-11-22 08:05:20 51°20.263 2°55.478 -999 3.898969 32.925236 -2.871232
2006-11-22 08:05:25 51°20.277 2°55.494 -999 3.898244 32.919218 -2.871232
2006-11-22 08:05:30 51°20.291 2°55.51 -999 3.899591 32.932711 -2.871232
2006-11-22 08:05:35 51°20.305 2°55.526 -999 3.899695 32.933687 -2.871232
2006-11-22 08:05:40 51°20.319 2°55.543 -999 3.894512 32.88734 -2.871232
2006-11-22 08:05:45 51°20.333 2°55.559 -999 3.894512 32.88734 -2.871232
2006-11-22 08:05:50 51°20.346 2°55.577 -999 3.897207 32.913515 -2.871232
2006-11-22 08:05:56 51°20.363 2°55.596 -999 3.894512 32.88896 -2.871232
2006-11-22 08:06:00 51°20.374 2°55.61 -999 3.893476 32.880014 -2.871232
2006-11-22 08:06:06 51°20.39 2°55.633 -999 3.892024 32.867167 -2.871232
2006-11-22 08:06:10 51°20.402 2°55.643 -999 3.896896 32.91383 -2.871232
2006-11-22 08:06:15 51°20.415 2°55.662 -999 3.896896 32.91383 -2.871232
2006-11-22 08:06:21 51°20.433 2°55.679 -999 3.896793 32.915286 -2.871232
2006-11-22 08:06:26 51°20.446 2°55.697 -999 3.894927 32.897722 -2.871232
2006-11-22 08:06:30 51°20.457 2°55.709 -999 3.897622 32.922281 -2.871232
2006-11-22 08:06:36 51°20.474 2°55.73 -999 3.892025 32.869595 -2.871232
2006-11-22 08:06:41 51°20.487 2°55.747 -999 3.897726 32.923257 -2.871232
2006-11-22 08:06:46 51°20.5 2°55.764 -999 3.897726 32.923257 -2.871232
2006-11-22 08:06:50 51°20.509 2°55.779 -999 3.897415 32.92114 -2.871232
2006-11-22 08:06:55 51°20.523 2°55.799 -999 3.895341 32.902436 -2.871232
2006-11-22 08:07:00 51°20.537 2°55.814 -999 3.889848 32.850728 -2.871232
2006-11-22 08:07:06 51°20.551 2°55.838 -999 3.892543 32.876902 -2.871232
2006-11-22 08:07:10 51°20.561 2°55.852 -999 3.888086 32.834954 -2.871232
2006-11-22 08:07:15 51°20.572 2°55.874 -999 3.888086 32.834954 -2.871232
2006-11-22 08:07:20 51°20.586 2°55.887 -999 3.888915 32.842757 -2.871232
2006-11-22 08:07:25 51°20.598 2°55.907 -999 3.89161 32.868121 -2.871232
2006-11-22 08:07:30 51°20.613 2°55.921 -999 3.894305 32.892678 -2.871232
2006-11-22 08:07:36 51°20.625 2°55.946 -999 3.894201 32.891703 -2.871232
2006-11-22 08:07:40 51°20.637 2°55.958 -999 3.894823 32.899988 -2.871232
2006-11-22 08:07:45 51°20.648 2°55.977 -999 3.894823 32.899988 -2.871232
2006-11-22 08:07:50 51°20.661 2°55.995 -999 3.890055 32.855915 -2.871232
2006-11-22 08:07:56 51°20.676 2°56.018 -999 3.892439 32.879165 -2.871232
2006-11-22 08:08:00 51°20.688 2°56.03 -999 3.891299 32.870052 -2.871232
2006-11-22 08:08:05 51°20.7 2°56.048 -999 3.894201 32.899805 -2.871232
2006-11-22 08:08:10 51°20.713 2°56.068 -999 3.89275 32.890194 -2.871232
2006-11-22 08:08:15 51°20.727 2°56.085 -999 3.89275 32.890194 -2.871232
2006-11-22 08:08:21 51°20.742 2°56.106 -999 3.891714 32.885296 -2.871232
2006-11-22 08:08:26 51°20.756 2°56.122 -999 3.891092 32.883491 -2.871232
2006-11-22 08:08:30 51°20.766 2°56.136 -999 3.889952 32.874373 -2.871232
2006-11-22 08:08:35 51°20.778 2°56.157 -999 3.888708 32.865899 -2.871232
2006-11-22 08:08:40 51°20.792 2°56.173 -999 3.88933 32.875808 -2.871232
2006-11-22 08:08:46 51°20.807 2°56.195 -999 3.88933 32.875808 -2.871232
2006-11-22 08:08:50 51°20.817 2°56.209 -999 3.890885 32.89532 -2.871232
2006-11-22 08:08:55 51°20.831 2°56.228 -999 3.888915 32.882441 -2.871232
2006-11-22 08:09:01 51°20.847 2°56.248 -999 3.887257 32.874111 -2.871232
2006-11-22 08:09:06 51°20.859 2°56.268 -999 3.887775 32.88305 -2.871232
2006-11-22 08:09:10 51°20.869 2°56.281 -999 3.884459 32.855842 -2.871232
2006-11-22 08:09:16 51°20.884 2°56.308 -999 3.884459 32.855842 -2.871232
2006-11-22 08:09:20 51°20.897 2°56.317 -999 3.882178 32.837591 -2.871232
2006-11-22 08:09:26 51°20.91 2°56.343 -999 3.879483 32.81624 -2.871232
2006-11-22 08:09:30 51°20.922 2°56.354 -999 3.879691 32.823054 -2.871232
2006-11-22 08:09:36 51°20.937 2°56.379 -999 3.882075 32.854449 -2.871232
2006-11-22 08:09:40 51°20.948 2°56.392 -999 3.883008 32.875421 -2.871232
2006-11-22 08:09:45 51°20.959 2°56.411 -999 3.883008 32.875421 -2.871232
2006-11-22 08:09:50 51°20.973 2°56.43 -999 3.880417 32.860714 -2.871232
2006-11-22 08:09:56 51°20.99 2°56.45 -999 3.878551 32.85691 -2.871232
2006-11-22 08:10:00 51°20.999 2°56.466 -999 3.870778 32.794889 -2.871232
2006-11-22 08:10:05 51°21.014 2°56.48 -999 3.871814 32.815221 -2.871232
2006-11-22 08:10:10 51°21.027 2°56.5 -999 3.872954 32.832485 -2.871232
2006-11-22 08:10:15 51°21.039 2°56.517 -999 3.872954 32.832485 -2.871232
2006-11-22 08:10:20 51°21.052 2°56.536 -999 3.869949 32.810588 -2.871232
2006-11-22 08:10:25 51°21.066 2°56.552 -999 3.874095 32.853821 -2.871232
2006-11-22 08:10:30 51°21.078 2°56.571 -999 3.868187 32.801249 -2.871232
2006-11-22 08:10:35 51°21.092 2°56.589 -999 3.871711 32.833733 -2.871232
2006-11-22 08:10:40 51°21.106 2°56.607 -999 3.873369 32.847778 -2.871232
2006-11-22 08:10:45 51°21.119 2°56.624 -999 3.873369 32.847778 -2.871232
2006-11-22 08:10:50 51°21.132 2°56.642 -999 3.872436 32.836526 -2.871232
2006-11-22 08:10:55 51°21.145 2°56.66 -999 3.873265 32.839484 -2.871232
2006-11-22 08:11:00 51°21.158 2°56.678 -999 3.873576 32.835922 -2.871232
2006-11-22 08:11:05 51°21.171 2°56.695 -999 3.876893 32.859124 -2.871232
2006-11-22 08:11:10 51°21.184 2°56.715 -999 3.876582 32.848063 -2.871232
2006-11-22 08:11:16 51°21.2 2°56.736 -999 3.876582 32.848063 -2.871232
2006-11-22 08:11:21 51°21.213 2°56.754 -999 3.876271 32.836197 -2.871232
2006-11-22 08:11:26 51°21.225 2°56.772 -999 3.879899 32.862319 -2.871232
2006-11-22 08:11:30 51°21.235 2°56.787 -999 3.881039 32.867395 -2.871232
2006-11-22 08:11:34 51°21.246 2°56.803 -999 3.880935 32.861545 -2.871232
2006-11-22 08:11:40 51°21.262 2°56.823 -999 3.879691 32.844942 -2.871232
2006-11-22 08:11:46 51°21.278 2°56.844 -999 3.879691 32.844942 -2.871232
2006-11-22 08:11:50 51°21.289 2°56.86 -999 3.880935 32.851807 -2.871232
2006-11-22 08:11:55 51°21.303 2°56.876 -999 3.875234 32.796421 -2.871232
2006-11-22 08:12:00 51°21.316 2°56.894 -999 3.88052 32.849519 -2.871232
2006-11-22 08:12:06 51°21.332 2°56.914 -999 3.880624 32.856988 -2.871232
2006-11-22 08:12:10 51°21.342 2°56.929 -999 3.876582 32.831017 -2.871232
2006-11-22 08:12:15 51°21.354 2°56.947 -999 3.876582 32.831017 -2.871232
2006-11-22 08:12:20 51°21.367 2°56.965 -999 3.878344 32.863888 -2.871232
2006-11-22 08:12:25 51°21.379 2°56.984 -999 3.873058 32.840776 -2.871232
2006-11-22 08:12:30 51°21.392 2°57.003 -999 3.864041 32.80105 -2.871232
2006-11-22 08:12:36 51°21.406 2°57.024 -999 3.854196 32.755837 -2.871232
2006-11-22 08:12:41 51°21.417 2°57.045 -999 3.846216 32.722522 -2.871232
2006-11-22 08:12:45 51°21.427 2°57.059 -999 3.846216 32.722522 -2.871232
2006-11-22 08:12:50 51°21.438 2°57.082 -999 3.838339 32.686064 -2.871232
2006-11-22 08:12:56 51°21.453 2°57.103 -999 3.83067 32.644195 -2.871232
2006-11-22 08:13:00 51°21.462 2°57.121 -999 3.82497 32.612843 -2.871232
2006-11-22 08:13:05 51°21.476 2°57.137 -999 3.824867 32.626497 -2.871232
2006-11-22 08:13:10 51°21.487 2°57.157 -999 3.822069 32.612113 -2.871232
2006-11-22 08:13:14 51°21.498 2°57.171 -999 3.822069 32.612113 -2.871232
2006-11-22 08:13:21 51°21.515 2°57.198 -999 3.815229 32.556871 -2.871232
2006-11-22 08:13:26 51°21.528 2°57.216 -999 3.816784 32.580587 -2.871232
2006-11-22 08:13:30 51°21.538 2°57.23 -999 3.813053 32.552436 -2.871232
2006-11-22 08:13:35 51°21.55 2°57.251 -999 3.808907 32.517902 -2.871232
2006-11-22 08:13:40 51°21.564 2°57.269 -999 3.80984 32.530018 -2.871232
2006-11-22 08:13:46 51°21.579 2°57.291 -999 3.80984 32.530018 -2.871232
2006-11-22 08:13:50 51°21.588 2°57.307 -999 3.804348 32.481858 -2.871232
2006-11-22 08:13:55 51°21.602 2°57.324 -999 3.806006 32.499245 -2.871232
2006-11-22 08:14:00 51°21.613 2°57.346 -999 3.804659 32.488059 -2.871232
2006-11-22 08:14:06 51°21.627 2°57.37 -999 3.800202 32.447315 -2.871232
2006-11-22 08:14:10 51°21.636 2°57.386 -999 3.79958 32.441404 -2.871232
2006-11-22 08:14:16 51°21.65 2°57.409 -999 3.79958 32.441404 -2.871232
2006-11-22 08:14:20 51°21.658 2°57.427 -999 3.797404 32.421526 -2.871232
2006-11-22 08:14:25 51°21.672 2°57.443 -999 3.80041 32.449285 -2.871232
2006-11-22 08:14:30 51°21.682 2°57.465 -999 3.802793 32.471946 -2.871232
2006-11-22 08:14:36 51°21.697 2°57.487 -999 3.805073 32.495247 -2.871232
2006-11-22 08:14:40 51°21.706 2°57.503 -999 3.800928 32.458265 -2.871232
2006-11-22 08:14:45 51°21.719 2°57.521 -999 3.800928 32.458265 -2.871232
2006-11-22 08:14:50 51°21.73 2°57.541 -999 3.803208 32.482378 -2.871232
2006-11-22 08:14:55 51°21.743 2°57.559 -999 3.801861 32.472 -2.871232
2006-11-22 08:15:00 51°21.754 2°57.58 -999 3.801861 32.474435 -2.871232
2006-11-22 08:15:05 51°21.767 2°57.599 -999 3.801653 32.474086 -2.871232
2006-11-22 08:15:10 51°21.776 2°57.621 -999 3.799684 32.457793 -2.871232
2006-11-22 08:15:16 51°21.789 2°57.645 -999 3.799684 32.457793 -2.871232
2006-11-22 08:15:20 51°21.798 2°57.665 -999 3.797715 32.441499 -2.871232
2006-11-22 08:15:26 51°21.811 2°57.688 -999 3.798026 32.4477 -2.871232
2006-11-22 08:15:30 51°21.816 2°57.705 -999 3.79699 32.439464 -2.871232
2006-11-22 08:15:35 51°21.824 2°57.725 -999 3.800721 32.476578 -2.871232
2006-11-22 08:15:41 51°21.831 2°57.747 -999 3.797508 32.446015 -2.871232
2006-11-22 08:15:45 51°21.835 2°57.761 -999 3.797508 32.446015 -2.871232
2006-11-22 08:15:50 51°21.84 2°57.777 -999 3.798441 32.45651 -2.871232
2006-11-22 08:15:56 51°21.843 2°57.796 -999 3.796472 32.437779 -2.871232
2006-11-22 08:16:00 51°21.846 2°57.808 -999 3.799788 32.470951 -2.871232
2006-11-22 08:16:06 51°21.849 2°57.825 -999 3.800824 32.481624 -2.871232
2006-11-22 08:16:10 51°21.85 2°57.836 -999 3.799685 32.473213 -2.871232
2006-11-22 08:16:16 51°21.853 2°57.85 -999 3.799685 32.473213 -2.871232
2006-11-22 08:16:20 51°21.853 2°57.86 -999 3.800306 32.479942 -2.871232
2006-11-22 08:16:25 51°21.855 2°57.872 -999 3.800203 32.481392 -2.871232
2006-11-22 08:16:30 51°21.855 2°57.883 -999 3.799581 32.477099 -2.871232
2006-11-22 08:16:35 51°21.855 2°57.893 -999 3.798027 32.463117 -2.871232
2006-11-22 08:16:40 51°21.856 2°57.903 -999 3.797716 32.461782 -2.871232
2006-11-22 08:16:45 51°21.855 2°57.912 -999 3.797716 32.461782 -2.871232
2006-11-22 08:16:50 51°21.856 2°57.921 -999 3.797301 32.457837 -2.871232
2006-11-22 08:16:55 51°21.855 2°57.93 -999 3.798337 32.470136 -2.871232
2006-11-22 08:17:00 51°21.855 2°57.938 -999 3.800099 32.487717 -2.871232
2006-11-22 08:17:06 51°21.854 2°57.947 -999 3.79813 32.468975 -2.871232
2006-11-22 08:17:10 51°21.854 2°57.954 -999 3.798027 32.467989 -2.871232
2006-11-22 08:17:16 51°21.854 2°57.962 -999 3.798027 32.467989 -2.871232
2006-11-22 08:17:21 51°21.854 2°57.969 -999 3.799167 32.478839 -2.871232
2006-11-22 08:17:26 51°21.855 2°57.975 -999 3.79927 32.480638 -2.871232
2006-11-22 08:17:30 51°21.855 2°57.98 -999 3.799167 32.479652 -2.871232
2006-11-22 08:17:36 51°21.856 2°57.986 -999 3.794814 32.436603 -2.871232
2006-11-22 08:17:41 51°21.857 2°57.99 -999 3.795228 32.440547 -2.871232
2006-11-22 08:17:46 51°21.858 2°57.995 -999 3.795228 32.440547 -2.871232
2006-11-22 08:17:50 51°21.859 2°57.998 -999 3.798234 32.467526 -2.871232
2006-11-22 08:17:55 51°21.859 2°58.001 -999 3.79813 32.464103 -2.871232
2006-11-22 08:18:00 51°21.86 2°58.006 -999 3.797094 32.454241 -2.871232
2006-11-22 08:18:06 51°21.861 2°58.01 -999 3.798856 32.470195 -2.871232
2006-11-22 08:18:10 51°21.862 2°58.011 -999 3.796472 32.44589 -2.871232
2006-11-22 08:18:16 51°21.863 2°58.015 -999 3.796472 32.44589 -2.871232
2006-11-22 08:18:20 51°21.864 2°58.018 -999 3.797923 32.457261 -2.871232
2006-11-22 08:18:26 51°21.865 2°58.021 -999 3.798959 32.464686 -2.871232
2006-11-22 08:18:30 51°21.865 2°58.024 -999 3.800514 32.477041 -2.871232
2006-11-22 08:18:35 51°21.866 2°58.025 -999 3.800617 32.475592 -2.871232
2006-11-22 08:18:40 51°21.867 2°58.027 -999 3.798544 32.455062 -2.871232
2006-11-22 08:18:46 51°21.867 2°58.03 -999 3.798544 32.455062 -2.871232
2006-11-22 08:18:50 51°21.868 2°58.031 -999 3.798959 32.459817 -2.871232
2006-11-22 08:18:55 51°21.868 2°58.033 -999 3.797612 32.449435 -2.871232
2006-11-22 08:19:00 51°21.869 2°58.034 -999 3.796161 32.439687 -2.871232
2006-11-22 08:19:05 51°21.87 2°58.036 -999 3.797405 32.453142 -2.871232
2006-11-22 08:19:10 51°21.87 2°58.037 -999 3.798441 32.464627 -2.871232
2006-11-22 08:19:16 51°21.87 2°58.038 -999 3.798441 32.464627 -2.871232
2006-11-22 08:19:20 51°21.87 2°58.04 -999 3.797716 32.459347 -2.871232
2006-11-22 08:19:25 51°21.871 2°58.041 -999 3.796576 32.450934 -2.871232
2006-11-22 08:19:30 51°21.872 2°58.041 -999 3.797716 32.463406 -2.871232
2006-11-22 08:19:36 51°21.872 2°58.043 -999 3.798752 32.474894 -2.871232
2006-11-22 08:19:40 51°21.872 2°58.044 -999 3.798027 32.470426 -2.871232
2006-11-22 08:19:45 51°21.873 2°58.044 -999 3.798027 32.470426 -2.871232
2006-11-22 08:19:50 51°21.873 2°58.045 -999 3.792638 32.419948 -2.871232
2006-11-22 08:19:56 51°21.873 2°58.046 -999 3.795229 32.445416 -2.871232
2006-11-22 08:20:00 51°21.874 2°58.046 -999 3.799167 32.482089 -2.871232
2006-11-22 08:20:05 51°21.874 2°58.047 -999 3.797819 32.469265 -2.871232
2006-11-22 08:20:10 51°21.874 2°58.048 -999 3.796058 32.452496 -2.871232
2006-11-22 08:20:15 51°21.874 2°58.049 -999 3.796058 32.452496 -2.871232
2006-11-22 08:20:21 51°21.874 2°58.049 -999 3.792638 32.419948 -2.871232
2006-11-22 08:20:26 51°21.874 2°58.048 -999 3.798752 32.478143 -2.871232
2006-11-22 08:20:31 51°21.874 2°58.049 -999 3.794296 32.436539 -2.871232
2006-11-22 08:20:35 51°21.874 2°58.05 -999 3.790358 32.399873 -2.871232
2006-11-22 08:20:40 51°21.874 2°58.049 -999 3.796679 32.461662 -2.871232
2006-11-22 08:20:46 51°21.874 2°58.049 -999 3.796679 32.461662 -2.871232
2006-11-22 08:20:51 51°21.874 2°58.049 -999 3.792845 32.425976 -2.871232
2006-11-22 08:20:55 51°21.874 2°58.049 -999 3.796679 32.463287 -2.871232
2006-11-22 08:21:00 51°21.874 2°58.048 -999 3.796265 32.460152 -2.871232
2006-11-22 08:21:05 51°21.873 2°58.048 -999 3.795229 32.450287 -2.871232
2006-11-22 08:21:10 51°21.873 2°58.047 -999 3.796887 32.466884 -2.871232
2006-11-22 08:21:16 51°21.873 2°58.048 -999 3.796887 32.466884 -2.871232
2006-11-22 08:21:20 51°21.873 2°58.048 -999 3.796265 32.460965 -2.871232
2006-11-22 08:21:25 51°21.872 2°58.048 -999 3.792223 32.42168 -2.871232
2006-11-22 08:21:30 51°21.871 2°58.048 -999 3.795125 32.447677 -2.871232
2006-11-22 08:21:36 51°21.871 2°58.047 -999 3.791809 32.415301 -2.871232
2006-11-22 08:21:40 51°21.87 2°58.047 -999 3.794296 32.438162 -2.871232
2006-11-22 08:21:45 51°21.87 2°58.046 -999 3.794296 32.438162 -2.871232
2006-11-22 08:21:50 51°21.869 2°58.046 -999 3.793674 32.433055 -2.871232
2006-11-22 08:21:55 51°21.868 2°58.046 -999 3.795643 32.450986 -2.871232
2006-11-22 08:22:00 51°21.867 2°58.047 -999 3.793363 32.427663 -2.871232
2006-11-22 08:22:05 51°21.866 2°58.046 -999 3.796265 32.453657 -2.871232
2006-11-22 08:22:10 51°21.866 2°58.047 -999 3.794192 32.432308 -2.871232
2006-11-22 08:22:15 51°21.865 2°58.047 -999 3.794192 32.432308 -2.871232
2006-11-22 08:22:20 51°21.864 2°58.046 -999 3.794607 32.436253 -2.871232
2006-11-22 08:22:26 51°21.863 2°58.046 -999 3.795643 32.44855 -2.871232
2006-11-22 08:22:30 51°21.862 2°58.046 -999 3.794089 32.437001 -2.871232
2006-11-22 08:22:36 51°21.861 2°58.045 -999 3.794192 32.442045 -2.871232
2006-11-22 08:22:40 51°21.86 2°58.045 -999 3.793467 32.438386 -2.871232
2006-11-22 08:22:46 51°21.859 2°58.045 -999 3.793467 32.438386 -2.871232
2006-11-22 08:22:50 51°21.858 2°58.044 -999 3.793882 32.443956 -2.871232
2006-11-22 08:22:54 51°21.858 2°58.044 -999 3.795022 32.457247 -2.871232
2006-11-22 08:23:00 51°21.856 2°58.044 -999 3.795643 32.464792 -2.871232
2006-11-22 08:23:06 51°21.855 2°58.044 -999 3.796472 32.4735 -2.871232
2006-11-22 08:23:10 51°21.854 2°58.044 -999 3.792638 32.436987 -2.871232
2006-11-22 08:23:15 51°21.853 2°58.044 -999 3.792638 32.436987 -2.871232
2006-11-22 08:23:20 51°21.851 2°58.043 -999 3.79668 32.475474 -2.871232
2006-11-22 08:23:26 51°21.85 2°58.043 -999 3.793156 32.441921 -2.871232
2006-11-22 08:23:30 51°21.849 2°58.043 -999 3.793985 32.449003 -2.871232
2006-11-22 08:23:35 51°21.848 2°58.043 -999 3.797094 32.477796 -2.871232
2006-11-22 08:23:40 51°21.847 2°58.043 -999 3.79554 32.462993 -2.871232
2006-11-22 08:23:45 51°21.846 2°58.044 -999 3.79554 32.462993 -2.871232
2006-11-22 08:23:50 51°21.845 2°58.043 -999 3.792638 32.435363 -2.871232
2006-11-22 08:23:55 51°21.843 2°58.043 -999 3.792845 32.437337 -2.871232
2006-11-22 08:24:00 51°21.842 2°58.044 -999 3.795125 32.459858 -2.871232
2006-11-22 08:24:05 51°21.841 2°58.043 -999 3.793882 32.448829 -2.871232
2006-11-22 08:24:10 51°21.84 2°58.043 -999 3.79212 32.432053 -2.871232
2006-11-22 08:24:15 51°21.838 2°58.043 -999 3.79212 32.432053 -2.871232
2006-11-22 08:24:21 51°21.837 2°58.043 -999 3.792638 32.436987 -2.871232
2006-11-22 08:24:26 51°21.836 2°58.043 -999 3.792534 32.436 -2.871232
2006-11-22 08:24:30 51°21.834 2°58.043 -999 3.794814 32.45771 -2.871232
2006-11-22 08:24:36 51°21.833 2°58.043 -999 3.794192 32.451789 -2.871232
2006-11-22 08:24:40 51°21.832 2°58.042 -999 3.791913 32.43008 -2.871232
2006-11-22 08:24:45 51°21.83 2°58.042 -999 3.791913 32.43008 -2.871232
2006-11-22 08:24:50 51°21.829 2°58.042 -999 3.795851 32.467579 -2.871232
2006-11-22 08:24:56 51°21.828 2°58.042 -999 3.794711 32.455911 -2.871232
2006-11-22 08:25:00 51°21.826 2°58.042 -999 3.792016 32.429443 -2.871232
2006-11-22 08:25:05 51°21.825 2°58.041 -999 3.79212 32.43043 -2.871232
2006-11-22 08:25:10 51°21.823 2°58.042 -999 3.796991 32.476809 -2.871232
2006-11-22 08:25:14 51°21.822 2°58.042 -999 3.796991 32.476809 -2.871232
2006-11-22 08:25:20 51°21.821 2°58.042 -999 3.794192 32.450165 -2.871232
2006-11-22 08:25:26 51°21.819 2°58.041 -999 3.793985 32.447379 -2.871232
2006-11-22 08:25:30 51°21.817 2°58.041 -999 3.793467 32.442445 -2.871232
2006-11-22 08:25:34 51°21.816 2°58.041 -999 3.792949 32.437512 -2.871232
2006-11-22 08:25:40 51°21.815 2°58.041 -999 3.792638 32.434552 -2.871232
2006-11-22 08:25:45 51°21.813 2°58.041 -999 3.792638 32.434552 -2.871232
2006-11-22 08:25:50 51°21.812 2°58.04 -999 3.791913 32.427645 -2.871232
2006-11-22 08:25:55 51°21.81 2°58.041 -999 3.79326 32.440472 -2.871232
2006-11-22 08:26:00 51°21.809 2°58.041 -999 3.792742 32.435538 -2.871232
2006-11-22 08:26:05 51°21.808 2°58.04 -999 3.793053 32.43931 -2.871232
2006-11-22 08:26:10 51°21.806 2°58.041 -999 3.790773 32.418415 -2.871232
2006-11-22 08:26:15 51°21.805 2°58.041 -999 3.790773 32.418415 -2.871232
2006-11-22 08:26:21 51°21.803 2°58.041 -999 3.795747 32.465779 -2.871232
2006-11-22 08:26:25 51°21.802 2°58.04 -999 3.786109 32.37402 -2.871232
2006-11-22 08:26:30 51°21.801 2°58.04 -999 3.792949 32.439947 -2.871232
2006-11-22 08:26:35 51°21.799 2°58.041 -999 3.78528 32.366939 -2.871232
2006-11-22 08:26:41 51°21.798 2°58.041 -999 3.789115 32.404251 -2.871232
2006-11-22 08:26:46 51°21.798 2°58.041 -999 3.789115 32.404251 -2.871232
2006-11-22 08:26:50 51°21.798 2°58.042 -999 3.793778 32.449466 -2.871232
2006-11-22 08:26:55 51°21.799 2°58.043 -999 3.789736 32.411793 -2.871232
2006-11-22 08:27:00 51°21.801 2°58.043 -999 3.790565 32.420499 -2.871232
2006-11-22 08:27:05 51°21.803 2°58.045 -999 3.792742 32.441222 -2.871232
2006-11-22 08:27:10 51°21.806 2°58.046 -999 3.79554 32.467869 -2.871232
2006-11-22 08:27:15 51°21.809 2°58.047 -999 3.79554 32.467869 -2.871232
2006-11-22 08:27:20 51°21.812 2°58.048 -999 3.79554 32.467056 -2.871232
2006-11-22 08:27:26 51°21.817 2°58.05 -999 3.789633 32.409995 -2.871232
2006-11-22 08:27:31 51°21.821 2°58.051 -999 3.79554 32.465431 -2.871232
2006-11-22 08:27:36 51°21.826 2°58.052 -999 3.796369 32.473326 -2.871232
2006-11-22 08:27:40 51°21.83 2°58.053 -999 3.792534 32.436 -2.871232
2006-11-22 08:27:46 51°21.837 2°58.055 -999 3.792534 32.436 -2.871232
2006-11-22 08:27:50 51°21.841 2°58.055 -999 3.795332 32.461019 -2.871232
2006-11-22 08:27:56 51°21.849 2°58.057 -999 3.791602 32.423874 -2.871232
2006-11-22 08:28:00 51°21.853 2°58.059 -999 3.794192 32.447728 -2.871232
2006-11-22 08:28:05 51°21.859 2°58.063 -999 3.792431 32.429332 -2.871232
2006-11-22 08:28:10 51°21.865 2°58.067 -999 3.789529 32.400899 -2.871232
2006-11-22 08:28:16 51°21.872 2°58.071 -999 3.789529 32.400899 -2.871232
2006-11-22 08:28:20 51°21.876 2°58.075 -999 3.790565 32.410763 -2.871232
2006-11-22 08:28:25 51°21.881 2°58.081 -999 3.790565 32.410763 -2.871232
2006-11-22 08:28:30 51°21.886 2°58.086 -999 3.793985 32.444943 -2.871232
2006-11-22 08:28:36 51°21.891 2°58.092 -999 3.795954 32.463691 -2.871232
2006-11-22 08:28:40 51°21.895 2°58.097 -999 3.795125 32.455797 -2.871232
2006-11-22 08:28:45 51°21.899 2°58.103 -999 3.795125 32.455797 -2.871232
2006-11-22 08:28:50 51°21.903 2°58.109 -999 3.796058 32.464677 -2.871232
2006-11-22 08:28:55 51°21.907 2°58.115 -999 3.795851 32.462704 -2.871232
2006-11-22 08:29:00 51°21.91 2°58.122 -999 3.796783 32.472397 -2.871232
2006-11-22 08:29:05 51°21.913 2°58.13 -999 3.794503 32.449876 -2.871232
2006-11-22 08:29:10 51°21.916 2°58.137 -999 3.797612 32.478666 -2.871232
2006-11-22 08:29:16 51°21.92 2°58.146 -999 3.797612 32.478666 -2.871232
2006-11-22 08:29:21 51°21.922 2°58.154 -999 3.796783 32.46996 -2.871232
2006-11-22 08:29:26 51°21.924 2°58.162 -999 3.795954 32.459629 -2.871232
2006-11-22 08:29:30 51°21.925 2°58.169 -999 3.797198 32.469844 -2.871232
2006-11-22 08:29:35 51°21.926 2°58.177 -999 3.79585 32.456206 -2.871232
2006-11-22 08:29:40 51°21.927 2°58.184 -999 3.792534 32.422205 -2.871232
2006-11-22 08:29:46 51°21.928 2°58.194 -999 3.792534 32.422205 -2.871232
2006-11-22 08:29:50 51°21.927 2°58.199 -999 3.798752 32.479768 -2.871232
2006-11-22 08:29:55 51°21.927 2°58.206 -999 3.800514 32.493289 -2.871232
2006-11-22 08:30:00 51°21.927 2°58.213 -999 3.801032 32.49497 -2.871232
2006-11-22 08:30:06 51°21.926 2°58.221 -999 3.805695 32.536924 -2.871232
2006-11-22 08:30:10 51°21.925 2°58.226 -999 3.803934 32.518526 -2.871232
2006-11-22 08:30:15 51°21.924 2°58.233 -999 3.803934 32.518526 -2.871232
2006-11-22 08:30:20 51°21.923 2°58.238 -999 3.806421 32.541388 -2.871232
2006-11-22 08:30:26 51°21.921 2°58.245 -999 3.805384 32.529896 -2.871232
2006-11-22 08:30:30 51°21.92 2°58.25 -999 3.802586 32.502451 -2.871232
2006-11-22 08:30:36 51°21.918 2°58.256 -999 3.808079 32.554731 -2.871232
2006-11-22 08:30:41 51°21.915 2°58.261 -999 3.803726 32.514114 -2.871232
2006-11-22 08:30:45 51°21.914 2°58.265 -999 3.803726 32.514114 -2.871232
2006-11-22 08:30:50 51°21.912 2°58.269 -999 3.807872 32.554386 -2.871232
2006-11-22 08:30:56 51°21.909 2°58.275 -999 3.806524 32.542375 -2.871232
2006-11-22 08:31:00 51°21.907 2°58.278 -999 3.805074 32.529377 -2.871232
2006-11-22 08:31:05 51°21.904 2°58.281 -999 3.801757 32.497811 -2.871232
2006-11-22 08:31:10 51°21.901 2°58.284 -999 3.806939 32.547135 -2.871232
2006-11-22 08:31:16 51°21.898 2°58.288 -999 3.806939 32.547135 -2.871232
2006-11-22 08:31:20 51°21.895 2°58.29 -999 3.797923 32.462131 -2.871232
2006-11-22 08:31:25 51°21.892 2°58.293 -999 3.801446 32.496478 -2.871232
2006-11-22 08:31:30 51°21.889 2°58.295 -999 3.800203 32.485454 -2.871232
2006-11-22 08:31:35 51°21.887 2°58.298 -999 3.803415 32.516846 -2.871232
2006-11-22 08:31:41 51°21.882 2°58.3 -999 3.803519 32.518646 -2.871232
2006-11-22 08:31:46 51°21.879 2°58.302 -999 3.803519 32.518646 -2.871232
2006-11-22 08:31:50 51°21.876 2°58.302 -999 3.799892 32.484119 -2.871232
2006-11-22 08:31:55 51°21.873 2°58.304 -999 3.803623 32.519633 -2.871232
2006-11-22 08:32:01 51°21.869 2°58.305 -999 3.799374 32.479188 -2.871232
2006-11-22 08:32:06 51°21.866 2°58.306 -999 3.800203 32.486266 -2.871232
2006-11-22 08:32:10 51°21.863 2°58.306 -999 3.799063 32.476228 -2.871232
2006-11-22 08:32:16 51°21.86 2°58.306 -999 3.799063 32.476228 -2.871232
2006-11-22 08:32:20 51°21.857 2°58.307 -999 3.803208 32.5165 -2.871232
2006-11-22 08:32:26 51°21.853 2°58.307 -999 3.801757 32.505127 -2.871232
2006-11-22 08:32:30 51°21.85 2°58.306 -999 3.801654 32.507393 -2.871232
2006-11-22 08:32:35 51°21.847 2°58.305 -999 3.796472 32.459689 -2.871232
2006-11-22 08:32:41 51°21.843 2°58.305 -999 3.797923 32.475938 -2.871232
2006-11-22 08:32:46 51°21.839 2°58.305 -999 3.797923 32.475938 -2.871232
2006-11-22 08:32:50 51°21.836 2°58.304 -999 3.796161 32.461602 -2.871232
2006-11-22 08:32:55 51°21.832 2°58.302 -999 3.790358 32.409602 -2.871232
2006-11-22 08:33:01 51°21.828 2°58.301 -999 3.798752 32.491148 -2.871232
2006-11-22 08:33:06 51°21.825 2°58.299 -999 3.79212 32.428807 -2.871232
2006-11-22 08:33:10 51°21.822 2°58.299 -999 3.793052 32.438499 -2.871232
2006-11-22 08:33:15 51°21.818 2°58.296 -999 3.793052 32.438499 -2.871232
2006-11-22 08:33:21 51°21.814 2°58.294 -999 3.794711 32.454286 -2.871232
2006-11-22 08:33:26 51°21.81 2°58.293 -999 3.795125 32.458233 -2.871232
2006-11-22 08:33:30 51°21.807 2°58.292 -999 3.79098 32.419577 -2.871232
2006-11-22 08:33:36 51°21.802 2°58.29 -999 3.792742 32.437162 -2.871232
2006-11-22 08:33:41 51°21.799 2°58.287 -999 3.791187 32.423173 -2.871232
2006-11-22 08:33:46 51°21.795 2°58.285 -999 3.791187 32.423173 -2.871232
2006-11-22 08:33:50 51°21.792 2°58.284 -999 3.793156 32.441921 -2.871232
2006-11-22 08:33:55 51°21.789 2°58.281 -999 3.794607 32.455736 -2.871232
2006-11-22 08:34:00 51°21.785 2°58.278 -999 3.792327 32.43565 -2.871232
2006-11-22 08:34:06 51°21.781 2°58.275 -999 3.794296 32.455213 -2.871232
2006-11-22 08:34:10 51°21.778 2°58.272 -999 3.791913 32.434139 -2.871232
2006-11-22 08:34:15 51°21.775 2°58.27 -999 3.791913 32.434139 -2.871232
2006-11-22 08:34:20 51°21.771 2°58.267 -999 3.793467 32.449754 -2.871232
2006-11-22 08:34:25 51°21.768 2°58.263 -999 3.787767 32.397101 -2.871232
2006-11-22 08:34:30 51°21.765 2°58.26 -999 3.791084 32.429491 -2.871232
2006-11-22 08:34:36 51°21.761 2°58.256 -999 3.79212 32.440985 -2.871232
2006-11-22 08:34:40 51°21.759 2°58.254 -999 3.79098 32.43094 -2.871232
2006-11-22 08:34:46 51°21.756 2°58.25 -999 3.79098 32.43094 -2.871232
2006-11-22 08:34:50 51°21.753 2°58.247 -999 3.792431 32.44557 -2.871232
2006-11-22 08:34:55 51°21.75 2°58.244 -999 3.788182 32.405104 -2.871232
2006-11-22 08:35:00 51°21.748 2°58.241 -999 3.790255 32.425655 -2.871232
2006-11-22 08:35:05 51°21.745 2°58.238 -999 3.788597 32.409863 -2.871232
2006-11-22 08:35:10 51°21.742 2°58.234 -999 3.789322 32.416772 -2.871232
2006-11-22 08:35:16 51°21.739 2°58.231 -999 3.789322 32.416772 -2.871232
2006-11-22 08:35:20 51°21.737 2°58.228 -999 3.79326 32.455092 -2.871232
2006-11-22 08:35:25 51°21.734 2°58.225 -999 3.787768 32.402779 -2.871232
2006-11-22 08:35:30 51°21.731 2°58.221 -999 3.784451 32.372011 -2.871232
2006-11-22 08:35:36 51°21.727 2°58.216 -999 3.790047 32.425304 -2.871232
2006-11-22 08:35:40 51°21.724 2°58.213 -999 3.787353 32.398832 -2.871232
2006-11-22 08:35:45 51°21.721 2°58.21 -999 3.787353 32.398832 -2.871232
2006-11-22 08:35:50 51°21.718 2°58.206 -999 3.785073 32.377121 -2.871232
2006-11-22 08:35:56 51°21.715 2°58.202 -999 3.792845 32.450331 -2.871232
2006-11-22 08:36:00 51°21.712 2°58.199 -999 3.790151 32.424668 -2.871232
2006-11-22 08:36:06 51°21.708 2°58.194 -999 3.790462 32.426817 -2.871232
2006-11-22 08:36:10 51°21.705 2°58.191 -999 3.790462 32.426817 -2.871232
2006-11-22 08:36:15 51°21.702 2°58.187 -999 3.790462 32.426817 -2.871232
2006-11-22 08:36:20 51°21.699 2°58.182 -999 3.790566 32.426992 -2.871232
2006-11-22 08:36:25 51°21.696 2°58.178 -999 3.786109 32.384557 -2.871232
2006-11-22 08:36:30 51°21.692 2°58.173 -999 3.792638 32.44592 -2.871232
2006-11-22 08:36:35 51°21.688 2°58.169 -999 3.789218 32.412539 -2.871232
2006-11-22 08:36:40 51°21.685 2°58.163 -999 3.789218 32.410916 -2.871232
2006-11-22 08:36:46 51°21.681 2°58.158 -999 3.789218 32.410916 -2.871232
2006-11-22 08:36:50 51°21.678 2°58.155 -999 3.786835 32.38741 -2.871232
2006-11-22 08:36:56 51°21.674 2°58.15 -999 3.790773 32.424095 -2.871232
2006-11-22 08:37:00 51°21.671 2°58.146 -999 3.784659 32.36588 -2.871232
2006-11-22 08:37:05 51°21.668 2°58.141 -999 3.790255 32.41835 -2.871232
2006-11-22 08:37:10 51°21.665 2°58.137 -999 3.794296 32.455213 -2.871232
2006-11-22 08:37:16 51°21.661 2°58.132 -999 3.794296 32.455213 -2.871232
2006-11-22 08:37:21 51°21.657 2°58.127 -999 3.795229 32.463283 -2.871232
2006-11-22 08:37:25 51°21.655 2°58.123 -999 3.795229 32.463283 -2.871232
2006-11-22 08:37:30 51°21.652 2°58.118 -999 3.793467 32.446505 -2.871232
2006-11-22 08:37:36 51°21.648 2°58.113 -999 3.795125 32.461483 -2.871232
2006-11-22 08:37:40 51°21.645 2°58.109 -999 3.793156 32.442733 -2.871232
2006-11-22 08:37:45 51°21.642 2°58.104 -999 3.793156 32.442733 -2.871232
2006-11-22 08:37:50 51°21.639 2°58.099 -999 3.796576 32.474487 -2.871232
2006-11-22 08:37:56 51°21.635 2°58.092 -999 3.796472 32.4735 -2.871232
2006-11-22 08:38:01 51°21.632 2°58.087 -999 3.792431 32.434202 -2.871232
2006-11-22 08:38:06 51°21.629 2°58.082 -999 3.796991 32.476809 -2.871232
2006-11-22 08:38:10 51°21.627 2°58.079 -999 3.79782 32.483892 -2.871232
2006-11-22 08:38:16 51°21.623 2°58.073 -999 3.79782 32.483892 -2.871232
2006-11-22 08:38:21 51°21.62 2°58.067 -999 3.79813 32.486039 -2.871232
2006-11-22 08:38:25 51°21.618 2°58.063 -999 3.797612 32.479479 -2.871232
2006-11-22 08:38:30 51°21.615 2°58.059 -999 3.79699 32.472746 -2.871232
2006-11-22 08:38:36 51°21.612 2°58.055 -999 3.797094 32.47292 -2.871232
2006-11-22 08:38:40 51°21.609 2°58.052 -999 3.798752 32.487896 -2.871232
2006-11-22 08:38:46 51°21.605 2°58.047 -999 3.798752 32.487896 -2.871232
2006-11-22 08:38:50 51°21.603 2°58.044 -999 3.796472 32.465375 -2.871232
2006-11-22 08:38:56 51°21.6 2°58.039 -999 3.796887 32.469321 -2.871232
2006-11-22 08:39:00 51°21.598 2°58.036 -999 3.798338 32.482323 -2.871232
2006-11-22 08:39:06 51°21.594 2°58.031 -999 3.798856 32.487256 -2.871232
2006-11-22 08:39:10 51°21.592 2°58.029 -999 3.796472 32.464562 -2.871232
2006-11-22 08:39:15 51°21.59 2°58.024 -999 3.796472 32.464562 -2.871232
2006-11-22 08:39:21 51°21.587 2°58.02 -999 3.796265 32.462589 -2.871232
2006-11-22 08:39:25 51°21.584 2°58.017 -999 3.796058 32.460616 -2.871232
2006-11-22 08:39:30 51°21.582 2°58.014 -999 3.797198 32.471469 -2.871232
2006-11-22 08:39:36 51°21.579 2°58.009 -999 3.796783 32.467522 -2.871232
2006-11-22 08:39:40 51°21.577 2°58.006 -999 3.797094 32.471295 -2.871232
2006-11-22 08:39:46 51°21.573 2°58.002 -999 3.797094 32.471295 -2.871232
2006-11-22 08:39:50 51°21.572 2°57.998 -999 3.796265 32.464214 -2.871232
2006-11-22 08:39:56 51°21.569 2°57.993 -999 3.792742 32.430669 -2.871232
2006-11-22 08:40:00 51°21.567 2°57.99 -999 3.795747 32.460905 -2.871232
2006-11-22 08:40:05 51°21.564 2°57.986 -999 3.795229 32.456783 -2.871232
2006-11-22 08:40:10 51°21.562 2°57.982 -999 3.794918 32.454635 -2.871232
2006-11-22 08:40:16 51°21.56 2°57.978 -999 3.794918 32.454635 -2.871232
2006-11-22 08:40:21 51°21.558 2°57.974 -999 3.794918 32.45626 -2.871232
2006-11-22 08:40:26 51°21.556 2°57.969 -999 3.793882 32.447204 -2.871232
2006-11-22 08:40:30 51°21.554 2°57.966 -999 3.796576 32.473674 -2.871232
2006-11-22 08:40:35 51°21.552 2°57.963 -999 3.794814 32.45771 -2.871232
2006-11-22 08:40:41 51°21.549 2°57.958 -999 3.793053 32.441746 -2.871232
2006-11-22 08:40:46 51°21.547 2°57.954 -999 3.793053 32.441746 -2.871232
2006-11-22 08:40:50 51°21.546 2°57.951 -999 3.792742 32.44041 -2.871232
2006-11-22 08:40:55 51°21.544 2°57.946 -999 3.793882 32.451265 -2.871232
2006-11-22 08:41:00 51°21.542 2°57.942 -999 3.788493 32.400764 -2.871232
2006-11-22 08:41:06 51°21.539 2°57.936 -999 3.79326 32.446156 -2.871232
2006-11-22 08:41:10 51°21.537 2°57.934 -999 3.795022 32.463746 -2.871232
2006-11-22 08:41:16 51°21.535 2°57.928 -999 3.795022 32.463746 -2.871232
2006-11-22 08:41:20 51°21.533 2°57.924 -999 3.794918 32.462759 -2.871232
2006-11-22 08:41:26 51°21.531 2°57.918 -999 3.791913 32.434139 -2.871232
2006-11-22 08:41:30 51°21.53 2°57.914 -999 3.791394 32.429205 -2.871232
2006-11-22 08:41:36 51°21.527 2°57.907 -999 3.790462 32.421135 -2.871232
2006-11-22 08:41:40 51°21.525 2°57.903 -999 3.793571 32.451554 -2.871232
2006-11-22 08:41:45 51°21.524 2°57.897 -999 3.793571 32.451554 -2.871232
2006-11-22 08:41:50 51°21.523 2°57.891 -999 3.794503 32.460437 -2.871232
2006-11-22 08:41:55 51°21.521 2°57.885 -999 3.794296 32.458463 -2.871232
2006-11-22 08:42:01 51°21.519 2°57.878 -999 3.793674 32.452541 -2.871232
2006-11-22 08:42:06 51°21.517 2°57.873 -999 3.793571 32.452366 -2.871232
2006-11-22 08:42:10 51°21.516 2°57.868 -999 3.791809 32.4364 -2.871232
2006-11-22 08:42:16 51°21.515 2°57.862 -999 3.791809 32.4364 -2.871232
2006-11-22 08:42:20 51°21.514 2°57.858 -999 3.792016 32.438374 -2.871232
2006-11-22 08:42:25 51°21.512 2°57.852 -999 3.792742 32.445282 -2.871232